Observation data for Dell City 1N on 02/14/2018      Previous  Date  Next       Current Mesonet Observations  Soil Data  Daily Summary Page  Observations in Plain Language
KDC1 140600Z 29003KT 08/M01 A3027 RMK A01 T00781009  RH  054%=      5-min Rain = 0
KDC1 140601Z 30002KT 08/M01 A3027 RMK A01 T00761009  RH  055%=      5-min Rain = 0
KDC1 140602Z 33002KT 07/M01 A3027 RMK A01 T00741011  RH  055%=      5-min Rain = 0
KDC1 140603Z 36002KT 07/M01 A3027 RMK A01 T00721011  RH  055%=      5-min Rain = 0
KDC1 140604Z 35001KT 07/M01 A3028 RMK A01 T00711012  RH  055%=      5-min Rain = 0
KDC1 140605Z 31001KT 07/M01 A3028 RMK A01 T00701012  RH  056%=      5-min Rain = 0
KDC1 140606Z 30002KT 07/M02 A3028 RMK A01 T00701015  RH  054%=      5-min Rain = 0
KDC1 140607Z 28002KT 07/M02 A3028 RMK A01 T00711019  RH  053%=      5-min Rain = 0
KDC1 140608Z 28002KT 07/M02 A3027 RMK A01 T00731021  RH  051%=      5-min Rain = 0
KDC1 140609Z 29002KT 07/M02 A3027 RMK A01 T00731021  RH  051%=      5-min Rain = 0
KDC1 140610Z 28002KT 07/M02 A3027 RMK A01 T00741021  RH  051%=      5-min Rain = 0
KDC1 140611Z 27002KT 07/M03 A3027 RMK A01 T00741025  RH  050%=      5-min Rain = 0
KDC1 140612Z 27001KT 08/M03 A3027 RMK A01 T00751029  RH  048%=      5-min Rain = 0
KDC1 140613Z 27001KT 08/M03 A3027 RMK A01 T00771032  RH  046%=      5-min Rain = 0
KDC1 140614Z 27001KT 08/M04 A3027 RMK A01 T00781035  RH  045%=      5-min Rain = 0
KDC1 140615Z 24001KT 08/M04 A3027 RMK A01 T00791035  RH  045%=      5-min Rain = 0
KDC1 140616Z 24001KT 08/M03 A3027 RMK A01 T00781034  RH  045%=      5-min Rain = 0
KDC1 140617Z 26001KT 08/M04 A3027 RMK A01 T00781035  RH  045%=      5-min Rain = 0
KDC1 140618Z 26002KT 08/M03 A3027 RMK A01 T00801034  RH  044%=      5-min Rain = 0
KDC1 140619Z 27002KT 08/M03 A3027 RMK A01 T00811026  RH  047%=      5-min Rain = 0
KDC1 140620Z 28003KT 08/M02 A3027 RMK A01 T00781020  RH  050%=      5-min Rain = 0
KDC1 140621Z 28003KT 07/M02 A3027 RMK A01 T00741018  RH  052%=      5-min Rain = 0
KDC1 140622Z 28004KT 07/M01 A3027 RMK A01 T00681014  RH  056%=      5-min Rain = 0
KDC1 140623Z 28004KT 06/M01 A3027 RMK A01 T00631012  RH  059%=      5-min Rain = 0
KDC1 140624Z 28004KT 06/M01 A3027 RMK A01 T00581010  RH  061%=      5-min Rain = 0
KDC1 140625Z 28004KT 06/M01 A3027 RMK A01 T00551010  RH  063%=      5-min Rain = 0
KDC1 140626Z 29004KT 05/M01 A3027 RMK A01 T00531011  RH  063%=      5-min Rain = 0
KDC1 140627Z 29004KT 05/M01 A3027 RMK A01 T00521014  RH  063%=      5-min Rain = 0
KDC1 140628Z 28004KT 05/M02 A3027 RMK A01 T00511016  RH  062%=      5-min Rain = 0
KDC1 140629Z 27004KT 05/M02 A3027 RMK A01 T00511016  RH  062%=      5-min Rain = 0
KDC1 140630Z 28003KT 05/M02 A3027 RMK A01 T00511017  RH  061%=      5-min Rain = 0
KDC1 140631Z 29002KT 05/M02 A3027 RMK A01 T00541020  RH  059%=      5-min Rain = 0
KDC1 140632Z 29002KT 06/M02 A3027 RMK A01 T00581023  RH  056%=      5-min Rain = 0
KDC1 140633Z 30002KT 06/M03 A3027 RMK A01 T00611027  RH  053%=      5-min Rain = 0
KDC1 140634Z 30003KT 06/M03 A3027 RMK A01 T00641028  RH  052%=      5-min Rain = 0
KDC1 140635Z 29003KT 07/M03 A3027 RMK A01 T00661028  RH  051%=      5-min Rain = 0
KDC1 140636Z 29002KT 07/M03 A3027 RMK A01 T00671029  RH  050%=      5-min Rain = 0
KDC1 140637Z 30002KT 07/M03 A3027 RMK A01 T00681030  RH  049%=      5-min Rain = 0
KDC1 140638Z 31002KT 07/M03 A3027 RMK A01 T00691031  RH  049%=      5-min Rain = 0
KDC1 140639Z 32002KT 07/M03 A3027 RMK A01 T00701031  RH  049%=      5-min Rain = 0
KDC1 140640Z 31002KT 07/M03 A3027 RMK A01 T00701029  RH  049%=      5-min Rain = 0
KDC1 140641Z 31002KT 07/M02 A3027 RMK A01 T00701023  RH  051%=      5-min Rain = 0
KDC1 140642Z 32003KT 07/M02 A3027 RMK A01 T00681023  RH  053%=      5-min Rain = 0
KDC1 140643Z 33003KT 07/M02 A3027 RMK A01 T00661019  RH  054%=      5-min Rain = 0
KDC1 140644Z 33003KT 06/M02 A3027 RMK A01 T00631017  RH  057%=      5-min Rain = 0
KDC1 140645Z 31003KT 06/M02 A3027 RMK A01 T00611020  RH  056%=      5-min Rain = 0
KDC1 140646Z 32003KT 06/M02 A3027 RMK A01 T00591016  RH  058%=      5-min Rain = 0
KDC1 140647Z 32003KT 06/M02 A3027 RMK A01 T00571016  RH  059%=      5-min Rain = 0
KDC1 140648Z 32003KT 06/M02 A3027 RMK A01 T00551018  RH  059%=      5-min Rain = 0
KDC1 140649Z 32003KT 05/M02 A3027 RMK A01 T00541019  RH  059%=      5-min Rain = 0
KDC1 140650Z 32003KT 05/M02 A3027 RMK A01 T00531020  RH  059%=      5-min Rain = 0
KDC1 140651Z 33003KT 05/M02 A3026 RMK A01 T00521020  RH  060%=      5-min Rain = 0
KDC1 140652Z 32003KT 05/M02 A3026 RMK A01 T00521020  RH  060%=      5-min Rain = 0
KDC1 140653Z 32003KT 05/M02 A3027 RMK A01 T00511020  RH  060%=      5-min Rain = 0
KDC1 140654Z 33003KT 05/M02 A3027 RMK A01 T00511019  RH  061%=      5-min Rain = 0
KDC1 140655Z 32003KT 05/M02 A3027 RMK A01 T00501020  RH  061%=      5-min Rain = 0
KDC1 140656Z 33004KT 05/M02 A3027 RMK A01 T00501021  RH  060%=      5-min Rain = 0
KDC1 140657Z 33004KT 05/M02 A3027 RMK A01 T00491021  RH  060%=      5-min Rain = 0
KDC1 140658Z 33004KT 05/M02 A3027 RMK A01 T00491021  RH  060%=      5-min Rain = 0
KDC1 140659Z 34004KT 05/M02 A3027 RMK A01 T00481021  RH  061%=      5-min Rain = 0
KDC1 140700Z 34004KT 05/M02 A3027 RMK A01 T00461019  RH  063%=      5-min Rain = 0
KDC1 140701Z 35004KT 05/M02 A3027 RMK A01 T00451017  RH  064%=      5-min Rain = 0
KDC1 140702Z 35004KT 04/M02 A3027 RMK A01 T00441016  RH  065%=      5-min Rain = 0
KDC1 140703Z 35004KT 04/M02 A3027 RMK A01 T00441015  RH  066%=      5-min Rain = 0
KDC1 140704Z 35004KT 04/M02 A3027 RMK A01 T00431015  RH  066%=      5-min Rain = 0
KDC1 140705Z 34004KT 04/M01 A3027 RMK A01 T00431013  RH  067%=      5-min Rain = 0
KDC1 140706Z 34004KT 04/M01 A3027 RMK A01 T00431014  RH  067%=      5-min Rain = 0
KDC1 140707Z 34004KT 04/M01 A3027 RMK A01 T00431014  RH  066%=      5-min Rain = 0
KDC1 140708Z 34004KT 04/M01 A3027 RMK A01 T00441013  RH  066%=      5-min Rain = 0
KDC1 140709Z 34004KT 04/M01 A3027 RMK A01 T00441013  RH  066%=      5-min Rain = 0
KDC1 140710Z 34004KT 04/M01 A3027 RMK A01 T00441014  RH  066%=      5-min Rain = 0
KDC1 140711Z 35004KT 04/M02 A3027 RMK A01 T00441015  RH  065%=      5-min Rain = 0
KDC1 140712Z 35004KT 04/M02 A3027 RMK A01 T00441016  RH  065%=      5-min Rain = 0
KDC1 140713Z 34004KT 04/M02 A3027 RMK A01 T00441015  RH  066%=      5-min Rain = 0
KDC1 140714Z 34004KT 04/M01 A3027 RMK A01 T00431014  RH  066%=      5-min Rain = 0
KDC1 140715Z 35004KT 04/M01 A3027 RMK A01 T00431014  RH  066%=      5-min Rain = 0
KDC1 140716Z 00004KT 04/M01 A3027 RMK A01 T00431014  RH  066%=      5-min Rain = 0
KDC1 140717Z 00003KT 04/M01 A3027 RMK A01 T00431013  RH  067%=      5-min Rain = 0
KDC1 140718Z 00003KT 04/M01 A3027 RMK A01 T00421013  RH  067%=      5-min Rain = 0
KDC1 140719Z 00002KT 04/M01 A3027 RMK A01 T00421012  RH  068%=      5-min Rain = 0
KDC1 140720Z 01002KT 04/M01 A3027 RMK A01 T00421013  RH  068%=      5-min Rain = 0
KDC1 140721Z 02002KT 04/M01 A3027 RMK A01 T00421014  RH  067%=      5-min Rain = 0
KDC1 140722Z 02003KT 04/M02 A3027 RMK A01 T00431017  RH  065%=      5-min Rain = 0
KDC1 140723Z 02003KT 04/M02 A3027 RMK A01 T00441017  RH  064%=      5-min Rain = 0
KDC1 140724Z 04003KT 04/M02 A3027 RMK A01 T00441018  RH  064%=      5-min Rain = 0
KDC1 140725Z 04002KT 05/M02 A3027 RMK A01 T00451019  RH  063%=      5-min Rain = 0
KDC1 140726Z 04002KT 05/M02 A3027 RMK A01 T00451020  RH  063%=      5-min Rain = 0
KDC1 140727Z 03001KT 05/M02 A3027 RMK A01 T00461020  RH  063%=      5-min Rain = 0
KDC1 140728Z 03001KT 05/M02 A3027 RMK A01 T00471021  RH  062%=      5-min Rain = 0
KDC1 140729Z 03001KT 05/M02 A3027 RMK A01 T00481021  RH  061%=      5-min Rain = 0
KDC1 140730Z 04001KT 05/M02 A3027 RMK A01 T00491022  RH  060%=      5-min Rain = 0
KDC1 140731Z 06001KT 05/M02 A3027 RMK A01 T00501023  RH  059%=      5-min Rain = 0
KDC1 140732Z 06001KT 05/M03 A3027 RMK A01 T00501025  RH  058%=      5-min Rain = 0
KDC1 140733Z 06001KT 05/M02 A3027 RMK A01 T00511024  RH  058%=      5-min Rain = 0
KDC1 140734Z 06000KT 05/M02 A3027 RMK A01 T00521024  RH  058%=      5-min Rain = 0
KDC1 140735Z 10000KT 05/M02 A3027 RMK A01 T00521024  RH  058%=      5-min Rain = 0
KDC1 140736Z 09001KT 05/M02 A3027 RMK A01 T00531024  RH  058%=      5-min Rain = 0
KDC1 140737Z 09001KT 05/M03 A3027 RMK A01 T00531025  RH  057%=      5-min Rain = 0
KDC1 140738Z 09001KT 05/M03 A3027 RMK A01 T00541027  RH  056%=      5-min Rain = 0
KDC1 140739Z 08001KT 06/M03 A3027 RMK A01 T00551029  RH  055%=      5-min Rain = 0
KDC1 140740Z 08000KT 06/M03 A3027 RMK A01 T00551031  RH  054%=      5-min Rain = 0
KDC1 140741Z 00000KT 06/M03 A3027 RMK A01 T00561030  RH  054%=      5-min Rain = 0
KDC1 140742Z 00000KT 06/M02 A3027 RMK A01 T00571024  RH  056%=      5-min Rain = 0
KDC1 140743Z 00000KT 06/M02 A3027 RMK A01 T00571022  RH  057%=      5-min Rain = 0
KDC1 140744Z 29000KT 06/M02 A3027 RMK A01 T00551023  RH  057%=      5-min Rain = 0
KDC1 140745Z 29001KT 05/M03 A3027 RMK A01 T00531025  RH  057%=      5-min Rain = 0
KDC1 140746Z 29001KT 05/M03 A3027 RMK A01 T00521026  RH  057%=      5-min Rain = 0
KDC1 140747Z 28002KT 05/M03 A3027 RMK A01 T00511026  RH  057%=      5-min Rain = 0
KDC1 140748Z 28003KT 05/M03 A3027 RMK A01 T00501027  RH  057%=      5-min Rain = 0
KDC1 140749Z 28003KT 05/M03 A3027 RMK A01 T00501026  RH  058%=      5-min Rain = 0
KDC1 140750Z 28004KT 05/M02 A3027 RMK A01 T00491024  RH  059%=      5-min Rain = 0
KDC1 140751Z 28004KT 05/M02 A3026 RMK A01 T00491024  RH  060%=      5-min Rain = 0
KDC1 140752Z 28004KT 05/M02 A3026 RMK A01 T00481023  RH  060%=      5-min Rain = 0
KDC1 140753Z 28004KT 05/M02 A3026 RMK A01 T00491024  RH  059%=      5-min Rain = 0
KDC1 140754Z 29004KT 05/M03 A3026 RMK A01 T00501026  RH  058%=      5-min Rain = 0
KDC1 140755Z 29004KT 05/M03 A3026 RMK A01 T00521026  RH  057%=      5-min Rain = 0
KDC1 140756Z 30003KT 05/M02 A3026 RMK A01 T00541024  RH  057%=      5-min Rain = 0
KDC1 140757Z 30003KT 05/M02 A3026 RMK A01 T00541023  RH  058%=      5-min Rain = 0
KDC1 140758Z 30003KT 05/M02 A3026 RMK A01 T00541021  RH  058%=      5-min Rain = 0
KDC1 140759Z 30003KT 05/M02 A3026 RMK A01 T00531021  RH  059%=      5-min Rain = 0
KDC1 140800Z 31003KT 05/M02 A3026 RMK A01 T00531020  RH  059%=      5-min Rain = 0
KDC1 140801Z 31002KT 05/M02 A3026 RMK A01 T00541020  RH  059%=      5-min Rain = 0
KDC1 140802Z 31002KT 05/M02 A3026 RMK A01 T00541019  RH  059%=      5-min Rain = 0
KDC1 140803Z 31002KT 05/M02 A3026 RMK A01 T00541019  RH  059%=      5-min Rain = 0
KDC1 140804Z 30002KT 06/M02 A3026 RMK A01 T00551018  RH  059%=      5-min Rain = 0
KDC1 140805Z 30003KT 06/M02 A3026 RMK A01 T00551017  RH  060%=      5-min Rain = 0
KDC1 140806Z 30003KT 06/M02 A3026 RMK A01 T00551016  RH  060%=      5-min Rain = 0
KDC1 140807Z 30002KT 06/M02 A3026 RMK A01 T00561016  RH  060%=      5-min Rain = 0
KDC1 140808Z 30002KT 06/M02 A3026 RMK A01 T00561018  RH  059%=      5-min Rain = 0
KDC1 140809Z 29003KT 06/M02 A3026 RMK A01 T00561019  RH  059%=      5-min Rain = 0
KDC1 140810Z 30003KT 06/M02 A3027 RMK A01 T00551021  RH  058%=      5-min Rain = 0
KDC1 140811Z 32003KT 06/M02 A3027 RMK A01 T00561022  RH  057%=      5-min Rain = 0
KDC1 140812Z 31004KT 06/M02 A3027 RMK A01 T00551019  RH  059%=      5-min Rain = 0
KDC1 140813Z 31006KT 06/M02 A3027 RMK A01 T00561020  RH  058%=      5-min Rain = 0
KDC1 140814Z 31007KT 06/M02 A3027 RMK A01 T00551024  RH  057%=      5-min Rain = 0
KDC1 140815Z 31006KT 06/M03 A3027 RMK A01 T00551026  RH  056%=      5-min Rain = 0
KDC1 140816Z 31005KT 06/M02 A3027 RMK A01 T00551024  RH  057%=      5-min Rain = 0
KDC1 140817Z 31004KT 06/M02 A3027 RMK A01 T00551022  RH  057%=      5-min Rain = 0
KDC1 140818Z 31004KT 06/M02 A3027 RMK A01 T00561022  RH  057%=      5-min Rain = 0
KDC1 140819Z 31003KT 06/M02 A3026 RMK A01 T00571022  RH  057%=      5-min Rain = 0
KDC1 140820Z 32003KT 06/M02 A3026 RMK A01 T00581022  RH  056%=      5-min Rain = 0
KDC1 140821Z 31003KT 06/M02 A3026 RMK A01 T00581022  RH  056%=      5-min Rain = 0
KDC1 140822Z 31003KT 06/M02 A3026 RMK A01 T00591021  RH  056%=      5-min Rain = 0
KDC1 140823Z 30003KT 06/M02 A3026 RMK A01 T00591022  RH  056%=      5-min Rain = 0
KDC1 140824Z 30003KT 06/M02 A3026 RMK A01 T00601022  RH  056%=      5-min Rain = 0
KDC1 140825Z 30004KT 06/M02 A3026 RMK A01 T00591023  RH  055%=      5-min Rain = 0
KDC1 140826Z 30004KT 06/M02 A3026 RMK A01 T00601023  RH  055%=      5-min Rain = 0
KDC1 140827Z 30003KT 06/M02 A3026 RMK A01 T00601023  RH  055%=      5-min Rain = 0
KDC1 140828Z 30003KT 06/M02 A3026 RMK A01 T00601023  RH  055%=      5-min Rain = 0
KDC1 140829Z 30003KT 06/M02 A3026 RMK A01 T00601024  RH  055%=      5-min Rain = 0
KDC1 140830Z 31003KT 06/M03 A3026 RMK A01 T00611025  RH  054%=      5-min Rain = 0
KDC1 140831Z 31003KT 06/M03 A3026 RMK A01 T00611025  RH  054%=      5-min Rain = 0
KDC1 140832Z 30003KT 06/M03 A3026 RMK A01 T00621025  RH  054%=      5-min Rain = 0
KDC1 140833Z 31004KT 06/M02 A3026 RMK A01 T00621024  RH  054%=      5-min Rain = 0
KDC1 140834Z 31004KT 06/M02 A3026 RMK A01 T00621023  RH  054%=      5-min Rain = 0
KDC1 140835Z 31004KT 06/M02 A3026 RMK A01 T00621023  RH  055%=      5-min Rain = 0
KDC1 140836Z 30004KT 06/M02 A3026 RMK A01 T00621021  RH  055%=      5-min Rain = 0
KDC1 140837Z 30004KT 06/M02 A3026 RMK A01 T00621020  RH  056%=      5-min Rain = 0
KDC1 140838Z 29004KT 06/M02 A3026 RMK A01 T00621020  RH  056%=      5-min Rain = 0
KDC1 140839Z 30004KT 06/M02 A3026 RMK A01 T00621019  RH  056%=      5-min Rain = 0
KDC1 140840Z 30004KT 06/M02 A3026 RMK A01 T00621021  RH  055%=      5-min Rain = 0
KDC1 140841Z 30004KT 06/M02 A3026 RMK A01 T00621024  RH  054%=      5-min Rain = 0
KDC1 140842Z 30005KT 06/M03 A3026 RMK A01 T00631025  RH  053%=      5-min Rain = 0
KDC1 140843Z 30005KT 06/M03 A3026 RMK A01 T00641025  RH  053%=      5-min Rain = 0
KDC1 140844Z 30005KT 06/M03 A3026 RMK A01 T00641028  RH  052%=      5-min Rain = 0
KDC1 140845Z 30005KT 07/M03 A3026 RMK A01 T00651030  RH  051%=      5-min Rain = 0
KDC1 140846Z 30004KT 07/M03 A3026 RMK A01 T00651031  RH  050%=      5-min Rain = 0
KDC1 140847Z 30004KT 07/M03 A3026 RMK A01 T00661032  RH  050%=      5-min Rain = 0
KDC1 140848Z 30004KT 07/M03 A3026 RMK A01 T00661033  RH  049%=      5-min Rain = 0
KDC1 140849Z 29004KT 07/M03 A3027 RMK A01 T00661033  RH  049%=      5-min Rain = 0
KDC1 140850Z 29003KT 07/M03 A3027 RMK A01 T00661033  RH  049%=      5-min Rain = 0
KDC1 140851Z 29004KT 07/M03 A3027 RMK A01 T00661033  RH  049%=      5-min Rain = 0
KDC1 140852Z 29004KT 07/M03 A3027 RMK A01 T00661033  RH  049%=      5-min Rain = 0
KDC1 140853Z 29004KT 07/M03 A3027 RMK A01 T00661033  RH  049%=      5-min Rain = 0
KDC1 140854Z 29004KT 07/M03 A3027 RMK A01 T00661034  RH  049%=      5-min Rain = 0
KDC1 140855Z 29004KT 07/M04 A3027 RMK A01 T00661035  RH  048%=      5-min Rain = 0
KDC1 140856Z 29004KT 07/M04 A3027 RMK A01 T00661037  RH  047%=      5-min Rain = 0
KDC1 140857Z 29004KT 07/M04 A3027 RMK A01 T00681038  RH  047%=      5-min Rain = 0
KDC1 140858Z 29004KT 07/M04 A3026 RMK A01 T00681040  RH  046%=      5-min Rain = 0
KDC1 140859Z 30004KT 07/M04 A3026 RMK A01 T00691039  RH  046%=      5-min Rain = 0
KDC1 140900Z 30004KT 07/M04 A3026 RMK A01 T00691039  RH  046%=      5-min Rain = 0
KDC1 140901Z 30004KT 07/M04 A3026 RMK A01 T00691037  RH  047%=      5-min Rain = 0
KDC1 140902Z 30004KT 07/M04 A3026 RMK A01 T00691036  RH  047%=      5-min Rain = 0
KDC1 140903Z 30004KT 07/M04 A3026 RMK A01 T00691035  RH  048%=      5-min Rain = 0
KDC1 140904Z 30003KT 07/M03 A3026 RMK A01 T00681034  RH  048%=      5-min Rain = 0
KDC1 140905Z 31002KT 07/M04 A3026 RMK A01 T00681035  RH  048%=      5-min Rain = 0
KDC1 140906Z 31003KT 07/M04 A3026 RMK A01 T00681035  RH  048%=      5-min Rain = 0
KDC1 140907Z 32003KT 07/M04 A3025 RMK A01 T00681036  RH  048%=      5-min Rain = 0
KDC1 140908Z 33004KT 07/M04 A3025 RMK A01 T00681036  RH  047%=      5-min Rain = 0
KDC1 140909Z 33003KT 07/M04 A3025 RMK A01 T00681035  RH  048%=      5-min Rain = 0
KDC1 140910Z 32003KT 07/M03 A3025 RMK A01 T00681033  RH  048%=      5-min Rain = 0
KDC1 140911Z 32003KT 07/M03 A3025 RMK A01 T00681032  RH  049%=      5-min Rain = 0
KDC1 140912Z 32002KT 07/M03 A3025 RMK A01 T00681032  RH  049%=      5-min Rain = 0
KDC1 140913Z 32003KT 07/M03 A3025 RMK A01 T00681033  RH  049%=      5-min Rain = 0
KDC1 140914Z 31003KT 07/M03 A3025 RMK A01 T00681034  RH  048%=      5-min Rain = 0
KDC1 140915Z 32004KT 07/M03 A3025 RMK A01 T00681033  RH  049%=      5-min Rain = 0
KDC1 140916Z 32004KT 07/M03 A3025 RMK A01 T00681031  RH  049%=      5-min Rain = 0
KDC1 140917Z 33003KT 07/M03 A3025 RMK A01 T00681027  RH  051%=      5-min Rain = 0
KDC1 140918Z 33003KT 07/M03 A3025 RMK A01 T00681025  RH  052%=      5-min Rain = 0
KDC1 140919Z 33002KT 07/M03 A3026 RMK A01 T00671025  RH  052%=      5-min Rain = 0
KDC1 140920Z 32002KT 07/M03 A3026 RMK A01 T00671025  RH  052%=      5-min Rain = 0
KDC1 140921Z 31002KT 07/M03 A3026 RMK A01 T00671025  RH  052%=      5-min Rain = 0
KDC1 140922Z 33001KT 07/M03 A3026 RMK A01 T00671027  RH  051%=      5-min Rain = 0
KDC1 140923Z 34002KT 07/M03 A3026 RMK A01 T00671029  RH  050%=      5-min Rain = 0
KDC1 140924Z 35002KT 07/M03 A3025 RMK A01 T00681030  RH  050%=      5-min Rain = 0
KDC1 140925Z 36002KT 07/M03 A3025 RMK A01 T00681029  RH  050%=      5-min Rain = 0
KDC1 140926Z 00003KT 07/M03 A3025 RMK A01 T00691028  RH  050%=      5-min Rain = 0
KDC1 140927Z 00003KT 07/M03 A3025 RMK A01 T00691026  RH  051%=      5-min Rain = 0
KDC1 140928Z 36003KT 07/M02 A3024 RMK A01 T00691024  RH  052%=      5-min Rain = 0
KDC1 140929Z 35002KT 07/M02 A3025 RMK A01 T00691022  RH  053%=      5-min Rain = 0
KDC1 140930Z 35002KT 07/M02 A3025 RMK A01 T00681020  RH  053%=      5-min Rain = 0
KDC1 140931Z 00002KT 07/M02 A3025 RMK A01 T00681018  RH  054%=      5-min Rain = 0
KDC1 140932Z 01002KT 07/M02 A3025 RMK A01 T00681018  RH  054%=      5-min Rain = 0
KDC1 140933Z 02002KT 07/M02 A3025 RMK A01 T00671018  RH  055%=      5-min Rain = 0
KDC1 140934Z 03001KT 07/M02 A3025 RMK A01 T00671018  RH  055%=      5-min Rain = 0
KDC1 140935Z 03001KT 07/M02 A3025 RMK A01 T00671019  RH  054%=      5-min Rain = 0
KDC1 140936Z 01001KT 07/M02 A3025 RMK A01 T00671019  RH  054%=      5-min Rain = 0
KDC1 140937Z 01002KT 07/M02 A3025 RMK A01 T00671019  RH  054%=      5-min Rain = 0
KDC1 140938Z 01001KT 07/M02 A3025 RMK A01 T00671019  RH  054%=      5-min Rain = 0
KDC1 140939Z 05001KT 07/M02 A3025 RMK A01 T00671020  RH  054%=      5-min Rain = 0
KDC1 140940Z 07002KT 07/M02 A3025 RMK A01 T00671020  RH  054%=      5-min Rain = 0
KDC1 140941Z 09002KT 07/M02 A3025 RMK A01 T00671022  RH  053%=      5-min Rain = 0
KDC1 140942Z 06002KT 07/M03 A3025 RMK A01 T00681025  RH  052%=      5-min Rain = 0
KDC1 140943Z 05001KT 07/M03 A3025 RMK A01 T00681027  RH  051%=      5-min Rain = 0
KDC1 140944Z 04001KT 07/M03 A3025 RMK A01 T00681032  RH  049%=      5-min Rain = 0
KDC1 140945Z 04000KT 07/M04 A3025 RMK A01 T00681036  RH  047%=      5-min Rain = 0
KDC1 140946Z 12000KT 07/M04 A3025 RMK A01 T00691036  RH  047%=      5-min Rain = 0
KDC1 140947Z 12001KT 07/M04 A3025 RMK A01 T00691035  RH  048%=      5-min Rain = 0
KDC1 140948Z 12001KT 07/M03 A3025 RMK A01 T00691032  RH  049%=      5-min Rain = 0
KDC1 140949Z 11001KT 07/M03 A3025 RMK A01 T00691031  RH  049%=      5-min Rain = 0
KDC1 140950Z 00000KT 07/M03 A3025 RMK A01 T00691030  RH  049%=      5-min Rain = 0
KDC1 140951Z 07000KT 07/M03 A3025 RMK A01 T00691030  RH  049%=      5-min Rain = 0
KDC1 140952Z 07001KT 07/M03 A3025 RMK A01 T00691032  RH  049%=      5-min Rain = 0
KDC1 140953Z 07001KT 07/M03 A3025 RMK A01 T00691032  RH  049%=      5-min Rain = 0
KDC1 140954Z 08001KT 07/M03 A3025 RMK A01 T00691033  RH  048%=      5-min Rain = 0
KDC1 140955Z 08000KT 07/M03 A3024 RMK A01 T00691033  RH  048%=      5-min Rain = 0
KDC1 140956Z 10000KT 07/M03 A3024 RMK A01 T00691032  RH  048%=      5-min Rain = 0
KDC1 140957Z 10001KT 07/M03 A3024 RMK A01 T00691033  RH  048%=      5-min Rain = 0
KDC1 140958Z 11000KT 07/M03 A3024 RMK A01 T00691034  RH  048%=      5-min Rain = 0
KDC1 140959Z 00000KT 07/M03 A3025 RMK A01 T00691034  RH  048%=      5-min Rain = 0
KDC1 141000Z 00000KT 07/M04 A3025 RMK A01 T00691035  RH  048%=      5-min Rain = 0
KDC1 141001Z 00000KT 07/M04 A3025 RMK A01 T00691038  RH  047%=      5-min Rain = 0
KDC1 141002Z 31000KT 07/M04 A3025 RMK A01 T00691042  RH  045%=      5-min Rain = 0
KDC1 141003Z 30001KT 07/M04 A3025 RMK A01 T00691044  RH  044%=      5-min Rain = 0
KDC1 141004Z 29001KT 07/M05 A3025 RMK A01 T00691049  RH  043%=      5-min Rain = 0
KDC1 141005Z 27001KT 07/M05 A3025 RMK A01 T00701048  RH  043%=      5-min Rain = 0
KDC1 141006Z 25001KT 07/M05 A3025 RMK A01 T00701048  RH  043%=      5-min Rain = 0
KDC1 141007Z 25001KT 07/M05 A3025 RMK A01 T00701050  RH  042%=      5-min Rain = 0
KDC1 141008Z 24001KT 07/M05 A3025 RMK A01 T00711052  RH  041%=      5-min Rain = 0
KDC1 141009Z 26001KT 07/M05 A3025 RMK A01 T00701054  RH  041%=      5-min Rain = 0
KDC1 141010Z 27001KT 07/M05 A3025 RMK A01 T00711053  RH  041%=      5-min Rain = 0
KDC1 141011Z 27002KT 07/M05 A3025 RMK A01 T00711052  RH  041%=      5-min Rain = 0
KDC1 141012Z 25002KT 07/M05 A3025 RMK A01 T00711050  RH  042%=      5-min Rain = 0
KDC1 141013Z 24002KT 07/M05 A3025 RMK A01 T00711047  RH  043%=      5-min Rain = 0
KDC1 141014Z 24002KT 07/M04 A3025 RMK A01 T00701044  RH  044%=      5-min Rain = 0
KDC1 141015Z 25002KT 07/M04 A3025 RMK A01 T00701039  RH  046%=      5-min Rain = 0
KDC1 141016Z 24002KT 07/M03 A3025 RMK A01 T00701029  RH  049%=      5-min Rain = 0
KDC1 141017Z 23003KT 07/M03 A3025 RMK A01 T00701029  RH  049%=      5-min Rain = 0
KDC1 141018Z 23002KT 07/M03 A3025 RMK A01 T00691034  RH  048%=      5-min Rain = 0
KDC1 141019Z 24002KT 07/M04 A3025 RMK A01 T00691037  RH  047%=      5-min Rain = 0
KDC1 141020Z 25002KT 07/M04 A3025 RMK A01 T00691039  RH  046%=      5-min Rain = 0
KDC1 141021Z 25003KT 07/M04 A3025 RMK A01 T00701038  RH  046%=      5-min Rain = 0
KDC1 141022Z 25003KT 07/M04 A3025 RMK A01 T00701035  RH  047%=      5-min Rain = 0
KDC1 141023Z 26003KT 07/M04 A3025 RMK A01 T00701035  RH  047%=      5-min Rain = 0
KDC1 141024Z 26003KT 07/M03 A3025 RMK A01 T00701029  RH  050%=      5-min Rain = 0
KDC1 141025Z 25003KT 07/M03 A3025 RMK A01 T00691028  RH  050%=      5-min Rain = 0
KDC1 141026Z 25002KT 07/M03 A3025 RMK A01 T00691027  RH  051%=      5-min Rain = 0
KDC1 141027Z 25002KT 07/M02 A3025 RMK A01 T00681023  RH  052%=      5-min Rain = 0
KDC1 141028Z 25002KT 07/M02 A3025 RMK A01 T00671020  RH  054%=      5-min Rain = 0
KDC1 141029Z 26002KT 07/M02 A3025 RMK A01 T00671017  RH  055%=      5-min Rain = 0
KDC1 141030Z 26002KT 07/M02 A3025 RMK A01 T00671016  RH  056%=      5-min Rain = 0
KDC1 141031Z 27002KT 07/M01 A3025 RMK A01 T00661013  RH  057%=      5-min Rain = 0
KDC1 141032Z 28002KT 07/M01 A3025 RMK A01 T00651012  RH  058%=      5-min Rain = 0
KDC1 141033Z 28002KT 07/M01 A3025 RMK A01 T00651013  RH  057%=      5-min Rain = 0
KDC1 141034Z 29001KT 07/M01 A3024 RMK A01 T00651014  RH  057%=      5-min Rain = 0
KDC1 141035Z 30001KT 07/M01 A3024 RMK A01 T00651011  RH  058%=      5-min Rain = 0
KDC1 141036Z 30002KT 06/M01 A3024 RMK A01 T00641010  RH  059%=      5-min Rain = 0
KDC1 141037Z 30002KT 06/M01 A3024 RMK A01 T00641010  RH  059%=      5-min Rain = 0
KDC1 141038Z 30002KT 06/M01 A3024 RMK A01 T00641011  RH  059%=      5-min Rain = 0
KDC1 141039Z 30002KT 06/M01 A3024 RMK A01 T00641012  RH  058%=      5-min Rain = 0
KDC1 141040Z 30002KT 06/M01 A3024 RMK A01 T00641014  RH  057%=      5-min Rain = 0
KDC1 141041Z 30001KT 06/M01 A3024 RMK A01 T00641012  RH  058%=      5-min Rain = 0
KDC1 141042Z 30001KT 06/M01 A3024 RMK A01 T00641011  RH  059%=      5-min Rain = 0
KDC1 141043Z 30001KT 06/M01 A3024 RMK A01 T00631012  RH  058%=      5-min Rain = 0
KDC1 141044Z 30001KT 06/M01 A3024 RMK A01 T00631013  RH  058%=      5-min Rain = 0
KDC1 141045Z 30001KT 06/M01 A3024 RMK A01 T00631012  RH  059%=      5-min Rain = 0
KDC1 141046Z 29001KT 06/M01 A3025 RMK A01 T00621013  RH  059%=      5-min Rain = 0
KDC1 141047Z 30001KT 06/M02 A3025 RMK A01 T00621016  RH  057%=      5-min Rain = 0
KDC1 141048Z 29000KT 06/M02 A3025 RMK A01 T00631020  RH  055%=      5-min Rain = 0
KDC1 141049Z 00000KT 06/M02 A3024 RMK A01 T00641024  RH  053%=      5-min Rain = 0
KDC1 141050Z 00000KT 07/M03 A3025 RMK A01 T00651027  RH  052%=      5-min Rain = 0
KDC1 141051Z 27000KT 07/M03 A3025 RMK A01 T00651029  RH  051%=      5-min Rain = 0
KDC1 141052Z 27001KT 07/M03 A3025 RMK A01 T00661031  RH  050%=      5-min Rain = 0
KDC1 141053Z 27001KT 07/M04 A3025 RMK A01 T00661037  RH  048%=      5-min Rain = 0
KDC1 141054Z 26002KT 07/M04 A3025 RMK A01 T00671043  RH  045%=      5-min Rain = 0
KDC1 141055Z 25002KT 07/M05 A3025 RMK A01 T00681045  RH  044%=      5-min Rain = 0
KDC1 141056Z 24002KT 07/M05 A3025 RMK A01 T00691046  RH  044%=      5-min Rain = 0
KDC1 141057Z 24002KT 07/M05 A3025 RMK A01 T00701047  RH  043%=      5-min Rain = 0
KDC1 141058Z 24002KT 07/M05 A3025 RMK A01 T00701050  RH  042%=      5-min Rain = 0
KDC1 141059Z 25002KT 07/M05 A3025 RMK A01 T00711054  RH  040%=      5-min Rain = 0
KDC1 141100Z 26002KT 07/M05 A3025 RMK A01 T00731052  RH  041%=      5-min Rain = 0
KDC1 141101Z 26002KT 07/M05 A3025 RMK A01 T00731047  RH  042%=      5-min Rain = 0
KDC1 141102Z 26003KT 07/M05 A3025 RMK A01 T00731046  RH  043%=      5-min Rain = 0
KDC1 141103Z 26003KT 07/M05 A3025 RMK A01 T00721045  RH  043%=      5-min Rain = 0
KDC1 141104Z 27003KT 07/M04 A3025 RMK A01 T00711042  RH  044%=      5-min Rain = 0
KDC1 141105Z 26003KT 07/M04 A3025 RMK A01 T00701044  RH  044%=      5-min Rain = 0
KDC1 141106Z 25002KT 07/M05 A3025 RMK A01 T00701049  RH  042%=      5-min Rain = 0
KDC1 141107Z 24001KT 07/M05 A3025 RMK A01 T00711053  RH  041%=      5-min Rain = 0
KDC1 141108Z 22001KT 07/M05 A3025 RMK A01 T00711050  RH  042%=      5-min Rain = 0
KDC1 141109Z 20001KT 07/M04 A3025 RMK A01 T00711044  RH  044%=      5-min Rain = 0
KDC1 141110Z 21001KT 07/M04 A3025 RMK A01 T00701039  RH  046%=      5-min Rain = 0
KDC1 141111Z 22001KT 07/M04 A3025 RMK A01 T00681039  RH  046%=      5-min Rain = 0
KDC1 141112Z 23001KT 07/M04 A3025 RMK A01 T00691038  RH  046%=      5-min Rain = 0
KDC1 141113Z 24001KT 07/M04 A3025 RMK A01 T00691039  RH  046%=      5-min Rain = 0
KDC1 141114Z 25001KT 07/M04 A3025 RMK A01 T00681042  RH  045%=      5-min Rain = 0
KDC1 141115Z 26002KT 07/M04 A3025 RMK A01 T00681041  RH  046%=      5-min Rain = 0
KDC1 141116Z 26002KT 07/M04 A3025 RMK A01 T00681037  RH  047%=      5-min Rain = 0
KDC1 141117Z 28002KT 07/M03 A3025 RMK A01 T00671033  RH  049%=      5-min Rain = 0
KDC1 141118Z 29002KT 07/M03 A3025 RMK A01 T00671033  RH  049%=      5-min Rain = 0
KDC1 141119Z 28002KT 07/M03 A3025 RMK A01 T00661030  RH  050%=      5-min Rain = 0
KDC1 141120Z 28002KT 07/M03 A3025 RMK A01 T00651027  RH  052%=      5-min Rain = 0
KDC1 141121Z 28003KT 06/M03 A3025 RMK A01 T00641027  RH  052%=      5-min Rain = 0
KDC1 141122Z 28002KT 06/M03 A3025 RMK A01 T00641026  RH  053%=      5-min Rain = 0
KDC1 141123Z 28002KT 06/M02 A3025 RMK A01 T00631021  RH  055%=      5-min Rain = 0
KDC1 141124Z 30001KT 06/M02 A3025 RMK A01 T00621022  RH  055%=      5-min Rain = 0
KDC1 141125Z 28001KT 06/M02 A3024 RMK A01 T00621022  RH  055%=      5-min Rain = 0
KDC1 141126Z 26001KT 06/M02 A3024 RMK A01 T00611022  RH  055%=      5-min Rain = 0
KDC1 141127Z 25001KT 06/M02 A3024 RMK A01 T00611023  RH  055%=      5-min Rain = 0
KDC1 141128Z 24001KT 06/M02 A3024 RMK A01 T00611022  RH  055%=      5-min Rain = 0
KDC1 141129Z 24000KT 06/M02 A3024 RMK A01 T00611021  RH  056%=      5-min Rain = 0
KDC1 141130Z 27000KT 06/M02 A3024 RMK A01 T00601021  RH  056%=      5-min Rain = 0
KDC1 141131Z 27001KT 06/M02 A3024 RMK A01 T00601020  RH  057%=      5-min Rain = 0
KDC1 141132Z 26002KT 06/M02 A3024 RMK A01 T00601018  RH  057%=      5-min Rain = 0
KDC1 141133Z 27002KT 06/M02 A3024 RMK A01 T00601018  RH  058%=      5-min Rain = 0
KDC1 141134Z 27002KT 06/M02 A3024 RMK A01 T00591020  RH  057%=      5-min Rain = 0
KDC1 141135Z 27003KT 06/M03 A3024 RMK A01 T00601027  RH  054%=      5-min Rain = 0
KDC1 141136Z 27003KT 06/M03 A3024 RMK A01 T00611034  RH  050%=      5-min Rain = 0
KDC1 141137Z 27003KT 06/M04 A3024 RMK A01 T00621035  RH  050%=      5-min Rain = 0
KDC1 141138Z 27004KT 06/M03 A3025 RMK A01 T00621033  RH  050%=      5-min Rain = 0
KDC1 141139Z 26004KT 06/M03 A3025 RMK A01 T00621031  RH  051%=      5-min Rain = 0
KDC1 141140Z 26004KT 06/M03 A3025 RMK A01 T00621028  RH  053%=      5-min Rain = 0
KDC1 141141Z 26003KT 06/M03 A3025 RMK A01 T00601025  RH  054%=      5-min Rain = 0
KDC1 141142Z 26003KT 06/M03 A3025 RMK A01 T00601025  RH  054%=      5-min Rain = 0
KDC1 141143Z 27003KT 06/M03 A3025 RMK A01 T00591028  RH  054%=      5-min Rain = 0
KDC1 141144Z 26003KT 06/M03 A3025 RMK A01 T00591032  RH  052%=      5-min Rain = 0
KDC1 141145Z 27002KT 06/M04 A3025 RMK A01 T00591036  RH  050%=      5-min Rain = 0
KDC1 141146Z 27002KT 06/M04 A3025 RMK A01 T00601039  RH  049%=      5-min Rain = 0
KDC1 141147Z 27002KT 06/M04 A3025 RMK A01 T00601040  RH  049%=      5-min Rain = 0
KDC1 141148Z 28003KT 06/M04 A3025 RMK A01 T00611040  RH  049%=      5-min Rain = 0
KDC1 141149Z 28003KT 06/M04 A3025 RMK A01 T00611037  RH  049%=      5-min Rain = 0
KDC1 141150Z 29003KT 06/M03 A3025 RMK A01 T00611034  RH  050%=      5-min Rain = 0
KDC1 141151Z 30002KT 06/M03 A3025 RMK A01 T00611033  RH  051%=      5-min Rain = 0
KDC1 141152Z 31002KT 06/M03 A3024 RMK A01 T00611033  RH  051%=      5-min Rain = 0
KDC1 141153Z 30003KT 06/M03 A3024 RMK A01 T00611033  RH  051%=      5-min Rain = 0
KDC1 141154Z 30003KT 06/M03 A3024 RMK A01 T00601032  RH  051%=      5-min Rain = 0
KDC1 141155Z 30003KT 06/M03 A3024 RMK A01 T00601031  RH  052%=      5-min Rain = 0
KDC1 141156Z 30003KT 06/M03 A3024 RMK A01 T00591029  RH  053%=      5-min Rain = 0
KDC1 141157Z 30002KT 06/M03 A3024 RMK A01 T00581028  RH  054%=      5-min Rain = 0
KDC1 141158Z 31002KT 06/M03 A3024 RMK A01 T00581028  RH  054%=      5-min Rain = 0
KDC1 141159Z 32002KT 06/M03 A3024 RMK A01 T00571028  RH  054%=      5-min Rain = 0
KDC1 141200Z 32001KT 06/M03 A3024 RMK A01 T00571028  RH  055%=      5-min Rain = 0
KDC1 141201Z 32001KT 06/M03 A3024 RMK A01 T00561028  RH  055%=      5-min Rain = 0
KDC1 141202Z 32001KT 06/M03 A3024 RMK A01 T00561028  RH  055%=      5-min Rain = 0
KDC1 141203Z 32001KT 06/M03 A3024 RMK A01 T00551029  RH  055%=      5-min Rain = 0
KDC1 141204Z 32001KT 05/M03 A3024 RMK A01 T00541029  RH  055%=      5-min Rain = 0
KDC1 141205Z 32001KT 05/M03 A3024 RMK A01 T00541027  RH  056%=      5-min Rain = 0
KDC1 141206Z 32001KT 05/M03 A3024 RMK A01 T00531026  RH  057%=      5-min Rain = 0
KDC1 141207Z 32002KT 05/M02 A3024 RMK A01 T00531024  RH  058%=      5-min Rain = 0
KDC1 141208Z 33002KT 05/M02 A3024 RMK A01 T00531020  RH  059%=      5-min Rain = 0
KDC1 141209Z 33002KT 05/M02 A3024 RMK A01 T00521018  RH  060%=      5-min Rain = 0
KDC1 141210Z 32002KT 05/M02 A3024 RMK A01 T00521017  RH  061%=      5-min Rain = 0
KDC1 141211Z 32002KT 05/M02 A3024 RMK A01 T00521016  RH  061%=      5-min Rain = 0
KDC1 141212Z 33002KT 05/M02 A3024 RMK A01 T00511016  RH  062%=      5-min Rain = 0
KDC1 141213Z 33002KT 05/M02 A3023 RMK A01 T00511016  RH  062%=      5-min Rain = 0
KDC1 141214Z 33002KT 05/M02 A3023 RMK A01 T00501016  RH  062%=      5-min Rain = 0
KDC1 141215Z 34002KT 05/M02 A3023 RMK A01 T00501016  RH  062%=      5-min Rain = 0
KDC1 141216Z 34003KT 05/M02 A3023 RMK A01 T00501015  RH  063%=      5-min Rain = 0
KDC1 141217Z 34003KT 05/M01 A3023 RMK A01 T00491013  RH  064%=      5-min Rain = 0
KDC1 141218Z 34003KT 05/M01 A3023 RMK A01 T00481012  RH  065%=      5-min Rain = 0
KDC1 141219Z 35004KT 05/M02 A3023 RMK A01 T00451015  RH  065%=      5-min Rain = 0
KDC1 141220Z 35004KT 04/M02 A3023 RMK A01 T00431016  RH  065%=      5-min Rain = 0
KDC1 141221Z 36004KT 04/M02 A3023 RMK A01 T00421016  RH  066%=      5-min Rain = 0
KDC1 141222Z 01004KT 04/M02 A3023 RMK A01 T00421018  RH  065%=      5-min Rain = 0
KDC1 141223Z 02003KT 04/M02 A3023 RMK A01 T00411020  RH  064%=      5-min Rain = 0
KDC1 141224Z 02003KT 04/M02 A3023 RMK A01 T00411022  RH  064%=      5-min Rain = 0
KDC1 141225Z 02003KT 04/M03 A3023 RMK A01 T00411025  RH  062%=      5-min Rain = 0
KDC1 141226Z 02003KT 04/M03 A3023 RMK A01 T00411029  RH  060%=      5-min Rain = 0
KDC1 141227Z 01003KT 04/M03 A3023 RMK A01 T00411031  RH  060%=      5-min Rain = 0
KDC1 141228Z 01003KT 04/M03 A3023 RMK A01 T00421029  RH  060%=      5-min Rain = 0
KDC1 141229Z 00004KT 04/M03 A3023 RMK A01 T00431030  RH  059%=      5-min Rain = 0
KDC1 141230Z 00004KT 04/M03 A3023 RMK A01 T00431028  RH  060%=      5-min Rain = 0
KDC1 141231Z 00004KT 04/M03 A3023 RMK A01 T00421028  RH  060%=      5-min Rain = 0
KDC1 141232Z 01004KT 04/M03 A3023 RMK A01 T00401030  RH  060%=      5-min Rain = 0
KDC1 141233Z 01003KT 04/M03 A3023 RMK A01 T00391030  RH  061%=      5-min Rain = 0
KDC1 141234Z 01003KT 04/M03 A3023 RMK A01 T00381029  RH  061%=      5-min Rain = 0
KDC1 141235Z 01002KT 04/M03 A3023 RMK A01 T00381029  RH  062%=      5-min Rain = 0
KDC1 141236Z 02002KT 04/M03 A3024 RMK A01 T00381032  RH  060%=      5-min Rain = 0
KDC1 141237Z 03001KT 04/M04 A3024 RMK A01 T00391037  RH  058%=      5-min Rain = 0
KDC1 141238Z 03001KT 04/M04 A3024 RMK A01 T00401038  RH  057%=      5-min Rain = 0
KDC1 141239Z 00000KT 04/M04 A3024 RMK A01 T00421038  RH  056%=      5-min Rain = 0
KDC1 141240Z 00000KT 04/M04 A3024 RMK A01 T00441040  RH  054%=      5-min Rain = 0
KDC1 141241Z 00000KT 05/M04 A3024 RMK A01 T00451041  RH  054%=      5-min Rain = 0
KDC1 141242Z 00000KT 05/M04 A3024 RMK A01 T00451044  RH  052%=      5-min Rain = 0
KDC1 141243Z 00000KT 05/M04 A3024 RMK A01 T00451043  RH  053%=      5-min Rain = 0
KDC1 141244Z 00000KT 05/M04 A3024 RMK A01 T00451043  RH  053%=      5-min Rain = 0
KDC1 141245Z 00000KT 05/M04 A3024 RMK A01 T00461044  RH  052%=      5-min Rain = 0
KDC1 141246Z 00000KT 05/M04 A3024 RMK A01 T00461042  RH  053%=      5-min Rain = 0
KDC1 141247Z 00000KT 05/M04 A3024 RMK A01 T00461041  RH  053%=      5-min Rain = 0
KDC1 141248Z 35001KT 05/M04 A3024 RMK A01 T00461040  RH  053%=      5-min Rain = 0
KDC1 141249Z 34001KT 05/M04 A3024 RMK A01 T00461037  RH  055%=      5-min Rain = 0
KDC1 141250Z 33001KT 04/M03 A3024 RMK A01 T00441027  RH  060%=      5-min Rain = 0
KDC1 141251Z 34001KT 04/M03 A3024 RMK A01 T00411026  RH  061%=      5-min Rain = 0
KDC1 141252Z 35000KT 04/M03 A3024 RMK A01 T00391026  RH  063%=      5-min Rain = 0
KDC1 141253Z 00000KT 04/M03 A3024 RMK A01 T00391028  RH  062%=      5-min Rain = 0
KDC1 141254Z 00000KT 04/M03 A3025 RMK A01 T00391029  RH  061%=      5-min Rain = 0
KDC1 141255Z 00000KT 04/M03 A3025 RMK A01 T00391032  RH  060%=      5-min Rain = 0
KDC1 141256Z 00000KT 04/M03 A3025 RMK A01 T00401034  RH  059%=      5-min Rain = 0
KDC1 141257Z 25000KT 04/M04 A3025 RMK A01 T00411035  RH  058%=      5-min Rain = 0
KDC1 141258Z 25001KT 04/M04 A3025 RMK A01 T00411037  RH  057%=      5-min Rain = 0
KDC1 141259Z 25001KT 04/M04 A3025 RMK A01 T00401037  RH  057%=      5-min Rain = 0
KDC1 141300Z 25002KT 04/M04 A3025 RMK A01 T00391035  RH  059%=      5-min Rain = 0
KDC1 141301Z 25002KT 04/M04 A3025 RMK A01 T00381035  RH  059%=      5-min Rain = 0
KDC1 141302Z 25002KT 04/M03 A3025 RMK A01 T00391034  RH  059%=      5-min Rain = 0
KDC1 141303Z 26003KT 04/M03 A3025 RMK A01 T00391031  RH  060%=      5-min Rain = 0
KDC1 141304Z 27003KT 04/M03 A3025 RMK A01 T00371032  RH  061%=      5-min Rain = 0
KDC1 141305Z 26004KT 04/M03 A3025 RMK A01 T00351033  RH  061%=      5-min Rain = 0
KDC1 141306Z 27003KT 04/M03 A3025 RMK A01 T00351032  RH  061%=      5-min Rain = 0
KDC1 141307Z 26003KT 03/M03 A3025 RMK A01 T00341033  RH  062%=      5-min Rain = 0
KDC1 141308Z 26003KT 03/M03 A3025 RMK A01 T00331034  RH  061%=      5-min Rain = 0
KDC1 141309Z 26003KT 03/M04 A3025 RMK A01 T00331035  RH  061%=      5-min Rain = 0
KDC1 141310Z 26003KT 03/M04 A3025 RMK A01 T00331037  RH  060%=      5-min Rain = 0
KDC1 141311Z 26003KT 03/M04 A3025 RMK A01 T00331041  RH  058%=      5-min Rain = 0
KDC1 141312Z 26003KT 04/M04 A3025 RMK A01 T00351042  RH  057%=      5-min Rain = 0
KDC1 141313Z 26003KT 04/M04 A3025 RMK A01 T00351044  RH  056%=      5-min Rain = 0
KDC1 141314Z 26003KT 04/M05 A3025 RMK A01 T00361046  RH  055%=      5-min Rain = 0
KDC1 141315Z 26003KT 04/M05 A3025 RMK A01 T00371048  RH  054%=      5-min Rain = 0
KDC1 141316Z 26003KT 04/M05 A3025 RMK A01 T00381051  RH  052%=      5-min Rain = 0
KDC1 141317Z 26003KT 04/M05 A3025 RMK A01 T00401051  RH  051%=      5-min Rain = 0
KDC1 141318Z 26003KT 04/M05 A3025 RMK A01 T00411050  RH  051%=      5-min Rain = 0
KDC1 141319Z 26003KT 04/M05 A3025 RMK A01 T00431049  RH  051%=      5-min Rain = 0
KDC1 141320Z 26003KT 04/M05 A3025 RMK A01 T00441048  RH  051%=      5-min Rain = 0
KDC1 141321Z 26003KT 05/M05 A3025 RMK A01 T00461048  RH  051%=      5-min Rain = 0
KDC1 141322Z 26003KT 05/M05 A3025 RMK A01 T00461048  RH  050%=      5-min Rain = 0
KDC1 141323Z 26002KT 05/M05 A3025 RMK A01 T00461048  RH  050%=      5-min Rain = 0
KDC1 141324Z 26002KT 05/M05 A3025 RMK A01 T00451049  RH  050%=      5-min Rain = 0
KDC1 141325Z 27002KT 05/M05 A3025 RMK A01 T00451048  RH  051%=      5-min Rain = 0
KDC1 141326Z 28003KT 04/M05 A3025 RMK A01 T00441046  RH  052%=      5-min Rain = 0
KDC1 141327Z 28003KT 04/M05 A3025 RMK A01 T00421047  RH  052%=      5-min Rain = 0
KDC1 141328Z 27003KT 04/M05 A3025 RMK A01 T00401045  RH  054%=      5-min Rain = 0
KDC1 141329Z 27002KT 04/M04 A3025 RMK A01 T00371043  RH  056%=      5-min Rain = 0
KDC1 141330Z 26002KT 04/M04 A3025 RMK A01 T00361042  RH  057%=      5-min Rain = 0
KDC1 141331Z 24002KT 04/M04 A3025 RMK A01 T00361044  RH  056%=      5-min Rain = 0
KDC1 141332Z 24002KT 04/M05 A3025 RMK A01 T00381048  RH  053%=      5-min Rain = 0
KDC1 141333Z 23002KT 04/M05 A3025 RMK A01 T00411049  RH  052%=      5-min Rain = 0
KDC1 141334Z 23002KT 04/M05 A3025 RMK A01 T00421047  RH  052%=      5-min Rain = 0
KDC1 141335Z 24001KT 04/M05 A3025 RMK A01 T00431047  RH  052%=      5-min Rain = 0
KDC1 141336Z 26001KT 04/M05 A3025 RMK A01 T00431048  RH  052%=      5-min Rain = 0
KDC1 141337Z 27002KT 04/M05 A3025 RMK A01 T00431046  RH  052%=      5-min Rain = 0
KDC1 141338Z 28003KT 04/M05 A3025 RMK A01 T00421046  RH  053%=      5-min Rain = 0
KDC1 141339Z 29004KT 04/M05 A3025 RMK A01 T00411047  RH  053%=      5-min Rain = 0
KDC1 141340Z 29004KT 04/M05 A3025 RMK A01 T00401045  RH  054%=      5-min Rain = 0
KDC1 141341Z 29004KT 04/M04 A3025 RMK A01 T00391042  RH  056%=      5-min Rain = 0
KDC1 141342Z 29004KT 04/M04 A3025 RMK A01 T00371041  RH  056%=      5-min Rain = 0
KDC1 141343Z 29004KT 04/M04 A3025 RMK A01 T00351040  RH  058%=      5-min Rain = 0
KDC1 141344Z 29004KT 03/M04 A3025 RMK A01 T00331039  RH  059%=      5-min Rain = 0
KDC1 141345Z 28004KT 03/M04 A3025 RMK A01 T00301038  RH  061%=      5-min Rain = 0
KDC1 141346Z 28004KT 03/M04 A3025 RMK A01 T00291038  RH  061%=      5-min Rain = 0
KDC1 141347Z 29004KT 03/M04 A3025 RMK A01 T00281039  RH  061%=      5-min Rain = 0
KDC1 141348Z 29005KT 03/M04 A3025 RMK A01 T00271041  RH  061%=      5-min Rain = 0
KDC1 141349Z 29005KT 03/M04 A3025 RMK A01 T00251042  RH  061%=      5-min Rain = 0
KDC1 141350Z 29005KT 02/M04 A3025 RMK A01 T00231044  RH  061%=      5-min Rain = 0
KDC1 141351Z 29005KT 02/M05 A3025 RMK A01 T00221045  RH  061%=      5-min Rain = 0
KDC1 141352Z 29006KT 02/M05 A3025 RMK A01 T00211045  RH  062%=      5-min Rain = 0
KDC1 141353Z 30005KT 02/M05 A3025 RMK A01 T00201046  RH  062%=      5-min Rain = 0
KDC1 141354Z 30005KT 02/M05 A3025 RMK A01 T00201046  RH  062%=      5-min Rain = 0
KDC1 141355Z 31006KT 02/M05 A3025 RMK A01 T00201049  RH  060%=      5-min Rain = 0
KDC1 141356Z 31005KT 02/M05 A3025 RMK A01 T00201052  RH  059%=      5-min Rain = 0
KDC1 141357Z 31005KT 02/M05 A3025 RMK A01 T00211053  RH  058%=      5-min Rain = 0
KDC1 141358Z 32005KT 02/M05 A3025 RMK A01 T00221054  RH  057%=      5-min Rain = 0
KDC1 141359Z 32005KT 02/M06 A3025 RMK A01 T00221055  RH  056%=      5-min Rain = 0
KDC1 141400Z 32004KT 02/M06 A3025 RMK A01 T00231056  RH  056%=      5-min Rain = 0
KDC1 141401Z 32005KT 02/M06 A3025 RMK A01 T00241056  RH  056%=      5-min Rain = 0
KDC1 141402Z 32004KT 03/M06 A3025 RMK A01 T00251057  RH  055%=      5-min Rain = 0
KDC1 141403Z 32005KT 03/M06 A3024 RMK A01 T00251057  RH  055%=      5-min Rain = 0
KDC1 141404Z 32005KT 03/M06 A3024 RMK A01 T00261056  RH  055%=      5-min Rain = 0
KDC1 141405Z 32004KT 03/M06 A3024 RMK A01 T00261056  RH  055%=      5-min Rain = 0
KDC1 141406Z 33003KT 03/M06 A3024 RMK A01 T00261055  RH  055%=      5-min Rain = 0
KDC1 141407Z 32004KT 03/M05 A3024 RMK A01 T00271054  RH  055%=      5-min Rain = 0
KDC1 141408Z 32004KT 03/M05 A3025 RMK A01 T00271053  RH  055%=      5-min Rain = 0
KDC1 141409Z 32004KT 03/M05 A3025 RMK A01 T00271053  RH  055%=      5-min Rain = 0
KDC1 141410Z 32004KT 03/M05 A3025 RMK A01 T00291054  RH  055%=      5-min Rain = 0
KDC1 141411Z 33004KT 03/M06 A3025 RMK A01 T00301055  RH  053%=      5-min Rain = 0
KDC1 141412Z 33003KT 03/M05 A3025 RMK A01 T00311054  RH  054%=      5-min Rain = 0
KDC1 141413Z 35003KT 03/M05 A3025 RMK A01 T00311052  RH  054%=      5-min Rain = 0
KDC1 141414Z 36001KT 03/M05 A3025 RMK A01 T00311048  RH  056%=      5-min Rain = 0
KDC1 141415Z 01001KT 03/M05 A3025 RMK A01 T00301045  RH  057%=      5-min Rain = 0
KDC1 141416Z 03002KT 03/M05 A3025 RMK A01 T00301045  RH  058%=      5-min Rain = 0
KDC1 141417Z 03002KT 03/M05 A3025 RMK A01 T00291047  RH  057%=      5-min Rain = 0
KDC1 141418Z 02003KT 03/M05 A3025 RMK A01 T00291051  RH  056%=      5-min Rain = 0
KDC1 141419Z 03003KT 03/M05 A3025 RMK A01 T00291051  RH  056%=      5-min Rain = 0
KDC1 141420Z 03003KT 03/M05 A3025 RMK A01 T00281052  RH  056%=      5-min Rain = 0
KDC1 141421Z 03004KT 03/M05 A3025 RMK A01 T00281051  RH  056%=      5-min Rain = 0
KDC1 141422Z 03003KT 03/M05 A3026 RMK A01 T00281054  RH  055%=      5-min Rain = 0
KDC1 141423Z 02002KT 03/M06 A3026 RMK A01 T00281059  RH  053%=      5-min Rain = 0
KDC1 141424Z 01002KT 03/M06 A3026 RMK A01 T00291060  RH  052%=      5-min Rain = 0
KDC1 141425Z 36001KT 03/M06 A3026 RMK A01 T00301061  RH  051%=      5-min Rain = 0
KDC1 141426Z 34001KT 03/M06 A3026 RMK A01 T00311061  RH  051%=      5-min Rain = 0
KDC1 141427Z 34001KT 03/M06 A3026 RMK A01 T00321062  RH  050%=      5-min Rain = 0
KDC1 141428Z 35001KT 03/M06 A3026 RMK A01 T00341061  RH  050%=      5-min Rain = 0
KDC1 141429Z 36001KT 03/M06 A3026 RMK A01 T00341059  RH  050%=      5-min Rain = 0
KDC1 141430Z 35001KT 04/M06 A3026 RMK A01 T00351057  RH  051%=      5-min Rain = 0
KDC1 141431Z 36001KT 04/M05 A3026 RMK A01 T00361052  RH  053%=      5-min Rain = 0
KDC1 141432Z 02001KT 04/M05 A3026 RMK A01 T00371046  RH  055%=      5-min Rain = 0
KDC1 141433Z 03001KT 04/M05 A3026 RMK A01 T00371046  RH  055%=      5-min Rain = 0
KDC1 141434Z 05001KT 04/M05 A3026 RMK A01 T00381047  RH  054%=      5-min Rain = 0
KDC1 141435Z 06001KT 04/M05 A3026 RMK A01 T00381051  RH  052%=      5-min Rain = 0
KDC1 141436Z 10000KT 04/M05 A3026 RMK A01 T00401052  RH  051%=      5-min Rain = 0
KDC1 141437Z 11001KT 04/M05 A3026 RMK A01 T00421053  RH  050%=      5-min Rain = 0
KDC1 141438Z 12001KT 05/M06 A3026 RMK A01 T00451056  RH  048%=      5-min Rain = 0
KDC1 141439Z 12001KT 05/M06 A3026 RMK A01 T00471059  RH  046%=      5-min Rain = 0
KDC1 141440Z 13000KT 05/M06 A3026 RMK A01 T00481062  RH  045%=      5-min Rain = 0
KDC1 141441Z 13000KT 05/M06 A3026 RMK A01 T00471064  RH  044%=      5-min Rain = 0
KDC1 141442Z 00000KT 05/M07 A3026 RMK A01 T00481065  RH  044%=      5-min Rain = 0
KDC1 141443Z 29000KT 05/M06 A3026 RMK A01 T00481064  RH  044%=      5-min Rain = 0
KDC1 141444Z 29001KT 05/M06 A3026 RMK A01 T00471060  RH  046%=      5-min Rain = 0
KDC1 141445Z 29001KT 05/M06 A3026 RMK A01 T00461061  RH  046%=      5-min Rain = 0
KDC1 141446Z 30001KT 05/M06 A3026 RMK A01 T00461058  RH  047%=      5-min Rain = 0
KDC1 141447Z 30001KT 05/M05 A3026 RMK A01 T00461052  RH  049%=      5-min Rain = 0
KDC1 141448Z 29001KT 05/M05 A3026 RMK A01 T00451048  RH  051%=      5-min Rain = 0
KDC1 141449Z 30001KT 05/M04 A3027 RMK A01 T00451043  RH  053%=      5-min Rain = 0
KDC1 141450Z 29001KT 05/M04 A3027 RMK A01 T00451041  RH  054%=      5-min Rain = 0
KDC1 141451Z 29001KT 05/M04 A3027 RMK A01 T00461038  RH  054%=      5-min Rain = 0
KDC1 141452Z 29000KT 05/M04 A3027 RMK A01 T00481035  RH  055%=      5-min Rain = 0
KDC1 141453Z 30000KT 05/M04 A3027 RMK A01 T00481039  RH  053%=      5-min Rain = 0
KDC1 141454Z 31001KT 05/M04 A3026 RMK A01 T00501041  RH  052%=      5-min Rain = 0
KDC1 141455Z 32001KT 05/M04 A3026 RMK A01 T00511042  RH  051%=      5-min Rain = 0
KDC1 141456Z 33002KT 05/M04 A3026 RMK A01 T00521038  RH  053%=      5-min Rain = 0
KDC1 141457Z 32002KT 05/M04 A3026 RMK A01 T00521041  RH  051%=      5-min Rain = 0
KDC1 141458Z 31002KT 05/M05 A3026 RMK A01 T00531047  RH  048%=      5-min Rain = 0
KDC1 141459Z 31002KT 06/M05 A3026 RMK A01 T00551046  RH  048%=      5-min Rain = 0
KDC1 141500Z 32001KT 06/M05 A3026 RMK A01 T00561046  RH  048%=      5-min Rain = 0
KDC1 141501Z 32001KT 06/M05 A3026 RMK A01 T00571049  RH  046%=      5-min Rain = 0
KDC1 141502Z 32001KT 06/M05 A3026 RMK A01 T00581046  RH  047%=      5-min Rain = 0
KDC1 141503Z 33000KT 06/M05 A3026 RMK A01 T00591045  RH  047%=      5-min Rain = 0
KDC1 141504Z 01001KT 06/M05 A3026 RMK A01 T00611047  RH  046%=      5-min Rain = 0
KDC1 141505Z 03000KT 06/M05 A3026 RMK A01 T00631046  RH  046%=      5-min Rain = 0
KDC1 141506Z 07001KT 07/M05 A3026 RMK A01 T00651046  RH  045%=      5-min Rain = 0
KDC1 141507Z 06001KT 07/M05 A3026 RMK A01 T00661047  RH  044%=      5-min Rain = 0
KDC1 141508Z 06001KT 07/M05 A3026 RMK A01 T00681050  RH  043%=      5-min Rain = 0
KDC1 141509Z 06001KT 07/M05 A3026 RMK A01 T00691053  RH  042%=      5-min Rain = 0
KDC1 141510Z 05001KT 07/M05 A3026 RMK A01 T00681054  RH  041%=      5-min Rain = 0
KDC1 141511Z 06001KT 07/M06 A3026 RMK A01 T00671055  RH  042%=      5-min Rain = 0
KDC1 141512Z 07001KT 07/M05 A3026 RMK A01 T00661054  RH  042%=      5-min Rain = 0
KDC1 141513Z 07001KT 07/M05 A3026 RMK A01 T00661054  RH  042%=      5-min Rain = 0
KDC1 141514Z 07001KT 07/M05 A3026 RMK A01 T00661052  RH  043%=      5-min Rain = 0
KDC1 141515Z 08001KT 07/M05 A3026 RMK A01 T00661052  RH  043%=      5-min Rain = 0
KDC1 141516Z 07000KT 07/M05 A3026 RMK A01 T00661052  RH  042%=      5-min Rain = 0
KDC1 141517Z 08000KT 07/M05 A3026 RMK A01 T00661052  RH  042%=      5-min Rain = 0
KDC1 141518Z 08000KT 07/M05 A3026 RMK A01 T00671052  RH  042%=      5-min Rain = 0
KDC1 141519Z 00000KT 07/M05 A3026 RMK A01 T00681052  RH  042%=      5-min Rain = 0
KDC1 141520Z 10000KT 07/M05 A3026 RMK A01 T00691053  RH  042%=      5-min Rain = 0
KDC1 141521Z 11001KT 07/M05 A3026 RMK A01 T00691053  RH  041%=      5-min Rain = 0
KDC1 141522Z 13001KT 07/M06 A3026 RMK A01 T00691055  RH  041%=      5-min Rain = 0
KDC1 141523Z 12001KT 07/M06 A3026 RMK A01 T00701055  RH  041%=      5-min Rain = 0
KDC1 141524Z 12000KT 07/M06 A3026 RMK A01 T00711055  RH  040%=      5-min Rain = 0
KDC1 141525Z 00000KT 07/M06 A3026 RMK A01 T00721056  RH  040%=      5-min Rain = 0
KDC1 141526Z 00000KT 07/M06 A3026 RMK A01 T00731055  RH  040%=      5-min Rain = 0
KDC1 141527Z 00000KT 08/M05 A3026 RMK A01 T00751053  RH  040%=      5-min Rain = 0
KDC1 141528Z 09000KT 08/M05 A3026 RMK A01 T00781052  RH  039%=      5-min Rain = 0
KDC1 141529Z 09000KT 08/M05 A3026 RMK A01 T00801052  RH  039%=      5-min Rain = 0
KDC1 141530Z 09001KT 08/M05 A3026 RMK A01 T00811053  RH  038%=      5-min Rain = 0
KDC1 141531Z 10001KT 08/M05 A3026 RMK A01 T00801053  RH  038%=      5-min Rain = 0
KDC1 141532Z 10002KT 08/M05 A3026 RMK A01 T00801053  RH  039%=      5-min Rain = 0
KDC1 141533Z 11002KT 08/M05 A3026 RMK A01 T00801052  RH  039%=      5-min Rain = 0
KDC1 141534Z 10002KT 08/M05 A3026 RMK A01 T00801049  RH  039%=      5-min Rain = 0
KDC1 141535Z 10002KT 08/M05 A3026 RMK A01 T00811051  RH  039%=      5-min Rain = 0
KDC1 141536Z 11002KT 08/M05 A3026 RMK A01 T00811048  RH  040%=      5-min Rain = 0
KDC1 141537Z 11001KT 08/M04 A3026 RMK A01 T00831044  RH  040%=      5-min Rain = 0
KDC1 141538Z 12001KT 08/M04 A3026 RMK A01 T00841044  RH  040%=      5-min Rain = 0
KDC1 141539Z 11001KT 09/M04 A3026 RMK A01 T00861044  RH  039%=      5-min Rain = 0
KDC1 141540Z 11001KT 09/M05 A3026 RMK A01 T00871051  RH  037%=      5-min Rain = 0
KDC1 141541Z 09000KT 09/M05 A3026 RMK A01 T00891052  RH  037%=      5-min Rain = 0
KDC1 141542Z 07001KT 09/M05 A3026 RMK A01 T00901050  RH  037%=      5-min Rain = 0
KDC1 141543Z 06001KT 09/M05 A3026 RMK A01 T00911048  RH  037%=      5-min Rain = 0
KDC1 141544Z 06001KT 09/M05 A3026 RMK A01 T00921050  RH  036%=      5-min Rain = 0
KDC1 141545Z 05001KT 09/M05 A3026 RMK A01 T00921051  RH  036%=      5-min Rain = 0
KDC1 141546Z 07001KT 09/M05 A3026 RMK A01 T00921050  RH  036%=      5-min Rain = 0
KDC1 141547Z 08001KT 09/M05 A3026 RMK A01 T00931051  RH  036%=      5-min Rain = 0
KDC1 141548Z 08001KT 09/M05 A3026 RMK A01 T00921053  RH  035%=      5-min Rain = 0
KDC1 141549Z 08001KT 09/M05 A3026 RMK A01 T00921054  RH  035%=      5-min Rain = 0
KDC1 141550Z 09002KT 09/M05 A3026 RMK A01 T00921053  RH  035%=      5-min Rain = 0
KDC1 141551Z 10002KT 09/M06 A3026 RMK A01 T00921055  RH  035%=      5-min Rain = 0
KDC1 141552Z 09002KT 09/M06 A3026 RMK A01 T00931055  RH  035%=      5-min Rain = 0
KDC1 141553Z 10002KT 09/M05 A3026 RMK A01 T00941053  RH  035%=      5-min Rain = 0
KDC1 141554Z 09002KT 10/M05 A3026 RMK A01 T00961052  RH  035%=      5-min Rain = 0
KDC1 141555Z 08001KT 10/M06 A3026 RMK A01 T00971055  RH  034%=      5-min Rain = 0
KDC1 141556Z 08001KT 10/M06 A3026 RMK A01 T01001055  RH  033%=      5-min Rain = 0
KDC1 141557Z 06001KT 10/M06 A3026 RMK A01 T01011055  RH  033%=      5-min Rain = 0
KDC1 141558Z 06001KT 10/M05 A3026 RMK A01 T01031054  RH  033%=      5-min Rain = 0
KDC1 141559Z 07001KT 11/M05 A3026 RMK A01 T01051054  RH  032%=      5-min Rain = 0
KDC1 141600Z 03002KT 11/M05 A3027 RMK A01 T01061052  RH  033%=      5-min Rain = 0
KDC1 141601Z 02001KT 11/M05 A3027 RMK A01 T01051045  RH  034%=      5-min Rain = 0
KDC1 141602Z 03001KT 11/M04 A3026 RMK A01 T01051039  RH  036%=      5-min Rain = 0
KDC1 141603Z 02002KT 11/M04 A3026 RMK A01 T01051037  RH  037%=      5-min Rain = 0
KDC1 141604Z 02002KT 11/M04 A3026 RMK A01 T01051036  RH  037%=      5-min Rain = 0
KDC1 141605Z 02003KT 11/M03 A3026 RMK A01 T01061034  RH  037%=      5-min Rain = 0
KDC1 141606Z 02003KT 11/M04 A3026 RMK A01 T01061037  RH  036%=      5-min Rain = 0
KDC1 141607Z 03003KT 11/M04 A3026 RMK A01 T01061039  RH  036%=      5-min Rain = 0
KDC1 141608Z 01003KT 11/M04 A3026 RMK A01 T01061041  RH  035%=      5-min Rain = 0
KDC1 141609Z 01002KT 11/M04 A3027 RMK A01 T01071039  RH  036%=      5-min Rain = 0
KDC1 141610Z 00002KT 11/M04 A3027 RMK A01 T01081040  RH  035%=      5-min Rain = 0
KDC1 141611Z 36002KT 11/M04 A3027 RMK A01 T01081042  RH  035%=      5-min Rain = 0
KDC1 141612Z 35003KT 11/M04 A3027 RMK A01 T01071042  RH  035%=      5-min Rain = 0
KDC1 141613Z 01002KT 11/M04 A3027 RMK A01 T01071041  RH  035%=      5-min Rain = 0
KDC1 141614Z 01002KT 11/M04 A3027 RMK A01 T01071040  RH  035%=      5-min Rain = 0
KDC1 141615Z 36001KT 11/M04 A3027 RMK A01 T01081040  RH  035%=      5-min Rain = 0
KDC1 141616Z 35001KT 11/M04 A3027 RMK A01 T01091039  RH  035%=      5-min Rain = 0
KDC1 141617Z 36002KT 11/M04 A3027 RMK A01 T01111040  RH  034%=      5-min Rain = 0
KDC1 141618Z 35003KT 11/M04 A3027 RMK A01 T01131044  RH  033%=      5-min Rain = 0
KDC1 141619Z 34003KT 11/M05 A3027 RMK A01 T01131047  RH  032%=      5-min Rain = 0
KDC1 141620Z 34002KT 11/M05 A3027 RMK A01 T01131050  RH  031%=      5-min Rain = 0
KDC1 141621Z 01002KT 11/M05 A3026 RMK A01 T01131051  RH  031%=      5-min Rain = 0
KDC1 141622Z 00002KT 11/M05 A3026 RMK A01 T01131052  RH  031%=      5-min Rain = 0
KDC1 141623Z 34001KT 11/M05 A3026 RMK A01 T01131051  RH  031%=      5-min Rain = 0
KDC1 141624Z 33001KT 11/M05 A3026 RMK A01 T01141050  RH  031%=      5-min Rain = 0
KDC1 141625Z 34002KT 12/M05 A3026 RMK A01 T01161047  RH  032%=      5-min Rain = 0
KDC1 141626Z 34001KT 12/M05 A3026 RMK A01 T01161047  RH  032%=      5-min Rain = 0
KDC1 141627Z 32002KT 12/M05 A3026 RMK A01 T01181046  RH  031%=      5-min Rain = 0
KDC1 141628Z 34002KT 12/M05 A3026 RMK A01 T01191048  RH  031%=      5-min Rain = 0
KDC1 141629Z 34001KT 12/M05 A3026 RMK A01 T01191049  RH  031%=      5-min Rain = 0
KDC1 141630Z 32002KT 12/M05 A3025 RMK A01 T01211048  RH  031%=      5-min Rain = 0
KDC1 141631Z 33001KT 12/M05 A3025 RMK A01 T01221047  RH  030%=      5-min Rain = 0
KDC1 141632Z 30001KT 12/M05 A3025 RMK A01 T01221049  RH  030%=      5-min Rain = 0
KDC1 141633Z 34001KT 12/M05 A3025 RMK A01 T01231048  RH  030%=      5-min Rain = 0
KDC1 141634Z 33002KT 13/M05 A3025 RMK A01 T01251048  RH  030%=      5-min Rain = 0
KDC1 141635Z 32002KT 13/M05 A3025 RMK A01 T01261049  RH  029%=      5-min Rain = 0
KDC1 141636Z 31002KT 13/M05 A3025 RMK A01 T01271050  RH  029%=      5-min Rain = 0
KDC1 141637Z 31001KT 13/M05 A3025 RMK A01 T01271052  RH  028%=      5-min Rain = 0
KDC1 141638Z 33001KT 13/M05 A3025 RMK A01 T01271051  RH  029%=      5-min Rain = 0
KDC1 141639Z 31001KT 13/M05 A3025 RMK A01 T01281050  RH  028%=      5-min Rain = 0
KDC1 141640Z 31001KT 13/M05 A3025 RMK A01 T01311049  RH  028%=      5-min Rain = 0
KDC1 141641Z 30001KT 13/M05 A3025 RMK A01 T01311051  RH  028%=      5-min Rain = 0
KDC1 141642Z 33000KT 13/M05 A3025 RMK A01 T01311051  RH  028%=      5-min Rain = 0
KDC1 141643Z 32001KT 13/M05 A3025 RMK A01 T01311052  RH  028%=      5-min Rain = 0
KDC1 141644Z 31002KT 13/M05 A3025 RMK A01 T01311051  RH  028%=      5-min Rain = 0
KDC1 141645Z 30001KT 13/M05 A3025 RMK A01 T01311051  RH  028%=      5-min Rain = 0
KDC1 141646Z 31000KT 13/M05 A3025 RMK A01 T01301051  RH  028%=      5-min Rain = 0
KDC1 141647Z 31001KT 13/M05 A3025 RMK A01 T01301049  RH  028%=      5-min Rain = 0
KDC1 141648Z 29002KT 13/M05 A3025 RMK A01 T01301048  RH  029%=      5-min Rain = 0
KDC1 141649Z 29001KT 13/M05 A3025 RMK A01 T01311048  RH  029%=      5-min Rain = 0
KDC1 141650Z 31003KT 13/M05 A3025 RMK A01 T01301047  RH  029%=      5-min Rain = 0
KDC1 141651Z 30003KT 13/M04 A3025 RMK A01 T01311041  RH  030%=      5-min Rain = 0
KDC1 141652Z 30002KT 13/M04 A3025 RMK A01 T01311039  RH  031%=      5-min Rain = 0
KDC1 141653Z 30002KT 13/M03 A3026 RMK A01 T01311034  RH  032%=      5-min Rain = 0
KDC1 141654Z 30002KT 13/M03 A3026 RMK A01 T01321034  RH  031%=      5-min Rain = 0
KDC1 141655Z 32001KT 13/M04 A3026 RMK A01 T01311035  RH  031%=      5-min Rain = 0
KDC1 141656Z 30000KT 13/M03 A3026 RMK A01 T01321032  RH  032%=      5-min Rain = 0
KDC1 141657Z 30000KT 13/M03 A3025 RMK A01 T01341029  RH  032%=      5-min Rain = 0
KDC1 141658Z 22001KT 14/M03 A3025 RMK A01 T01351028  RH  032%=      5-min Rain = 0
KDC1 141659Z 23001KT 14/M03 A3025 RMK A01 T01371032  RH  031%=      5-min Rain = 0
KDC1 141700Z 27000KT 14/M03 A3025 RMK A01 T01381030  RH  031%=      5-min Rain = 0
KDC1 141701Z 27002KT 14/M03 A3025 RMK A01 T01381033  RH  030%=      5-min Rain = 0
KDC1 141702Z 29001KT 14/M03 A3025 RMK A01 T01391033  RH  030%=      5-min Rain = 0
KDC1 141703Z 28001KT 14/M04 A3025 RMK A01 T01381036  RH  030%=      5-min Rain = 0
KDC1 141704Z 27001KT 14/M04 A3025 RMK A01 T01371036  RH  030%=      5-min Rain = 0
KDC1 141705Z 27001KT 14/M04 A3025 RMK A01 T01361036  RH  030%=      5-min Rain = 0
KDC1 141706Z 28000KT 14/M04 A3025 RMK A01 T01361038  RH  030%=      5-min Rain = 0
KDC1 141707Z 26000KT 14/M04 A3026 RMK A01 T01361038  RH  030%=      5-min Rain = 0
KDC1 141708Z 00000KT 14/M04 A3026 RMK A01 T01371037  RH  030%=      5-min Rain = 0
KDC1 141709Z 00000KT 14/M04 A3026 RMK A01 T01381036  RH  030%=      5-min Rain = 0
KDC1 141710Z 00000KT 14/M04 A3026 RMK A01 T01381036  RH  030%=      5-min Rain = 0
KDC1 141711Z 00000KT 14/M04 A3026 RMK A01 T01391036  RH  030%=      5-min Rain = 0
KDC1 141712Z 00000KT 14/M04 A3026 RMK A01 T01401035  RH  030%=      5-min Rain = 0
KDC1 141713Z 11001KT 14/M04 A3026 RMK A01 T01411035  RH  030%=      5-min Rain = 0
KDC1 141714Z 10000KT 14/M03 A3026 RMK A01 T01421034  RH  029%=      5-min Rain = 0
KDC1 141715Z 15002KT 14/M03 A3026 RMK A01 T01431034  RH  029%=      5-min Rain = 0
KDC1 141716Z 14002KT 14/M03 A3026 RMK A01 T01431034  RH  029%=      5-min Rain = 0
KDC1 141717Z 16002KT 14/M03 A3026 RMK A01 T01431034  RH  029%=      5-min Rain = 0
KDC1 141718Z 14002KT 14/M03 A3026 RMK A01 T01441032  RH  029%=      5-min Rain = 0
KDC1 141719Z 14004KT 15/M03 A3026 RMK A01 T01461032  RH  029%=      5-min Rain = 0
KDC1 141720Z 13003KT 15/M03 A3026 RMK A01 T01461032  RH  029%=      5-min Rain = 0
KDC1 141721Z 15004KT 15/M04 A3026 RMK A01 T01461035  RH  028%=      5-min Rain = 0
KDC1 141722Z 17004KT 15/M04 A3026 RMK A01 T01461037  RH  028%=      5-min Rain = 0
KDC1 141723Z 17003KT 15/M04 A3026 RMK A01 T01461035  RH  028%=      5-min Rain = 0
KDC1 141724Z 18003KT 15/M03 A3026 RMK A01 T01471034  RH  028%=      5-min Rain = 0
KDC1 141725Z 17002KT 15/M03 A3026 RMK A01 T01471034  RH  029%=      5-min Rain = 0
KDC1 141726Z 17002KT 15/M03 A3026 RMK A01 T01471034  RH  029%=      5-min Rain = 0
KDC1 141727Z 14003KT 15/M03 A3026 RMK A01 T01481034  RH  028%=      5-min Rain = 0
KDC1 141728Z 15003KT 15/M04 A3026 RMK A01 T01491037  RH  028%=      5-min Rain = 0
KDC1 141729Z 17002KT 15/M04 A3026 RMK A01 T01491038  RH  027%=      5-min Rain = 0
KDC1 141730Z 14002KT 15/M04 A3026 RMK A01 T01491039  RH  027%=      5-min Rain = 0
KDC1 141731Z 15002KT 15/M04 A3026 RMK A01 T01501038  RH  027%=      5-min Rain = 0
KDC1 141732Z 13002KT 15/M04 A3025 RMK A01 T01511038  RH  027%=      5-min Rain = 0
KDC1 141733Z 12002KT 15/M04 A3025 RMK A01 T01521035  RH  027%=      5-min Rain = 0
KDC1 141734Z 12002KT 15/M04 A3025 RMK A01 T01521035  RH  027%=      5-min Rain = 0
KDC1 141735Z 14002KT 15/M04 A3025 RMK A01 T01511035  RH  027%=      5-min Rain = 0
KDC1 141736Z 17003KT 15/M04 A3025 RMK A01 T01511038  RH  027%=      5-min Rain = 0
KDC1 141737Z 15003KT 15/M04 A3025 RMK A01 T01531038  RH  027%=      5-min Rain = 0
KDC1 141738Z 15003KT 15/M04 A3025 RMK A01 T01541042  RH  026%=      5-min Rain = 0
KDC1 141739Z 15004KT 15/M04 A3025 RMK A01 T01541042  RH  026%=      5-min Rain = 0
KDC1 141740Z 15003KT 16/M04 A3025 RMK A01 T01551041  RH  026%=      5-min Rain = 0
KDC1 141741Z 17004KT 16/M04 A3025 RMK A01 T01551040  RH  026%=      5-min Rain = 0
KDC1 141742Z 17003KT 16/M04 A3025 RMK A01 T01561040  RH  026%=      5-min Rain = 0
KDC1 141743Z 18002KT 16/M04 A3025 RMK A01 T01561042  RH  025%=      5-min Rain = 0
KDC1 141744Z 18003KT 16/M04 A3025 RMK A01 T01571041  RH  025%=      5-min Rain = 0
KDC1 141745Z 17003KT 16/M04 A3025 RMK A01 T01571041  RH  025%=      5-min Rain = 0
KDC1 141746Z 18002KT 16/M04 A3025 RMK A01 T01551041  RH  026%=      5-min Rain = 0
KDC1 141747Z 17002KT 16/M04 A3025 RMK A01 T01551040  RH  026%=      5-min Rain = 0
KDC1 141748Z 15002KT 15/M04 A3025 RMK A01 T01541039  RH  026%=      5-min Rain = 0
KDC1 141749Z 14002KT 16/M04 A3024 RMK A01 T01551035  RH  027%=      5-min Rain = 0
KDC1 141750Z 15002KT 16/M03 A3024 RMK A01 T01551034  RH  027%=      5-min Rain = 0
KDC1 141751Z 14002KT 16/M03 A3024 RMK A01 T01551033  RH  027%=      5-min Rain = 0
KDC1 141752Z 14003KT 16/M03 A3024 RMK A01 T01561032  RH  027%=      5-min Rain = 0
KDC1 141753Z 14003KT 16/M03 A3024 RMK A01 T01581032  RH  027%=      5-min Rain = 0
KDC1 141754Z 14004KT 16/M03 A3024 RMK A01 T01591033  RH  026%=      5-min Rain = 0
KDC1 141755Z 13003KT 16/M03 A3024 RMK A01 T01591034  RH  026%=      5-min Rain = 0
KDC1 141756Z 12003KT 16/M03 A3024 RMK A01 T01611034  RH  026%=      5-min Rain = 0
KDC1 141757Z 13003KT 16/M03 A3024 RMK A01 T01621033  RH  026%=      5-min Rain = 0
KDC1 141758Z 15003KT 16/M03 A3024 RMK A01 T01631032  RH  026%=      5-min Rain = 0
KDC1 141759Z 16002KT 16/M04 A3024 RMK A01 T01631037  RH  025%=      5-min Rain = 0
KDC1 141800Z 13002KT 16/M04 A3024 RMK A01 T01621038  RH  025%=      5-min Rain = 0
KDC1 141801Z 16002KT 16/M04 A3024 RMK A01 T01621035  RH  026%=      5-min Rain = 0
KDC1 141802Z 15001KT 16/M03 A3024 RMK A01 T01631034  RH  026%=      5-min Rain = 0
KDC1 141803Z 15002KT 16/M03 A3024 RMK A01 T01631032  RH  026%=      5-min Rain = 0
KDC1 141804Z 12001KT 16/M03 A3024 RMK A01 T01631030  RH  026%=      5-min Rain = 0
KDC1 141805Z 13003KT 16/M03 A3024 RMK A01 T01641032  RH  026%=      5-min Rain = 0
KDC1 141806Z 14005KT 17/M03 A3023 RMK A01 T01651034  RH  025%=      5-min Rain = 0
KDC1 141807Z 14005KT 17/M04 A3023 RMK A01 T01651036  RH  025%=      5-min Rain = 0
KDC1 141808Z 14005KT 17/M04 A3023 RMK A01 T01651038  RH  024%=      5-min Rain = 0
KDC1 141809Z 13005KT 17/M04 A3023 RMK A01 T01651038  RH  025%=      5-min Rain = 0
KDC1 141810Z 14004KT 17/M04 A3023 RMK A01 T01671037  RH  025%=      5-min Rain = 0
KDC1 141811Z 12002KT 17/M04 A3023 RMK A01 T01681037  RH  024%=      5-min Rain = 0
KDC1 141812Z 14002KT 17/M04 A3023 RMK A01 T01691036  RH  024%=      5-min Rain = 0
KDC1 141813Z 15003KT 17/M04 A3023 RMK A01 T01711036  RH  024%=      5-min Rain = 0
KDC1 141814Z 15003KT 17/M04 A3023 RMK A01 T01721035  RH  024%=      5-min Rain = 0
KDC1 141815Z 14002KT 17/M03 A3023 RMK A01 T01721033  RH  024%=      5-min Rain = 0
KDC1 141816Z 14002KT 17/M03 A3023 RMK A01 T01721033  RH  025%=      5-min Rain = 0
KDC1 141817Z 15001KT 17/M04 A3023 RMK A01 T01721036  RH  024%=      5-min Rain = 0
KDC1 141818Z 12002KT 17/M04 A3023 RMK A01 T01741035  RH  024%=      5-min Rain = 0
KDC1 141819Z 14002KT 18/M03 A3023 RMK A01 T01761033  RH  024%=      5-min Rain = 0
KDC1 141820Z 15002KT 18/M03 A3023 RMK A01 T01781032  RH  024%=      5-min Rain = 0
KDC1 141821Z 12003KT 18/M03 A3023 RMK A01 T01801031  RH  024%=      5-min Rain = 0
KDC1 141822Z 14004KT 18/M03 A3023 RMK A01 T01831030  RH  023%=      5-min Rain = 0
KDC1 141823Z 15004KT 19/M03 A3023 RMK A01 T01851032  RH  023%=      5-min Rain = 0
KDC1 141824Z 15004KT 19/M04 A3023 RMK A01 T01861037  RH  022%=      5-min Rain = 0
KDC1 141825Z 13005KT 19/M04 A3023 RMK A01 T01861035  RH  022%=      5-min Rain = 0
KDC1 141826Z 13004KT 19/M03 A3023 RMK A01 T01861033  RH  022%=      5-min Rain = 0
KDC1 141827Z 13003KT 19/M03 A3023 RMK A01 T01881030  RH  023%=      5-min Rain = 0
KDC1 141828Z 15002KT 19/M03 A3023 RMK A01 T01891030  RH  022%=      5-min Rain = 0
KDC1 141829Z 16002KT 19/M03 A3022 RMK A01 T01901031  RH  022%=      5-min Rain = 0
KDC1 141830Z 14003KT 19/M03 A3022 RMK A01 T01911034  RH  021%=      5-min Rain = 0
KDC1 141831Z 16003KT 19/M04 A3022 RMK A01 T01921035  RH  021%=      5-min Rain = 0
KDC1 141832Z 16002KT 19/M03 A3022 RMK A01 T01931033  RH  021%=      5-min Rain = 0
KDC1 141833Z 17003KT 19/M03 A3022 RMK A01 T01941033  RH  021%=      5-min Rain = 0
KDC1 141834Z 17002KT 20/M03 A3022 RMK A01 T01951034  RH  021%=      5-min Rain = 0
KDC1 141835Z 18001KT 19/M03 A3022 RMK A01 T01941034  RH  021%=      5-min Rain = 0
KDC1 141836Z 13002KT 20/M03 A3022 RMK A01 T01951034  RH  021%=      5-min Rain = 0
KDC1 141837Z 12002KT 20/M04 A3022 RMK A01 T01961036  RH  021%=      5-min Rain = 0
KDC1 141838Z 11001KT 20/M03 A3022 RMK A01 T01961034  RH  021%=      5-min Rain = 0
KDC1 141839Z 24001KT 20/M03 A3022 RMK A01 T01971032  RH  021%=      5-min Rain = 0
KDC1 141840Z 21001KT 20/M03 A3022 RMK A01 T01991031  RH  021%=      5-min Rain = 0
KDC1 141841Z 13002KT 20/M03 A3022 RMK A01 T02011029  RH  021%=      5-min Rain = 0
KDC1 141842Z 14002KT 20/M03 A3022 RMK A01 T02031030  RH  021%=      5-min Rain = 0
KDC1 141843Z 13003KT 20/M03 A3022 RMK A01 T02031029  RH  021%=      5-min Rain = 0
KDC1 141844Z 13002KT 20/M03 A3021 RMK A01 T02031029  RH  021%=      5-min Rain = 0
KDC1 141845Z 10003KT 20/M03 A3021 RMK A01 T02021031  RH  021%=      5-min Rain = 0
KDC1 141846Z 10003KT 20/M03 A3021 RMK A01 T02001032  RH  021%=      5-min Rain = 0
KDC1 141847Z 10002KT 20/M03 A3021 RMK A01 T01991031  RH  021%=      5-min Rain = 0
KDC1 141848Z 13004KT 20/M03 A3021 RMK A01 T02001029  RH  021%=      5-min Rain = 0
KDC1 141849Z 13004KT 20/M03 A3021 RMK A01 T02011028  RH  021%=      5-min Rain = 0
KDC1 141850Z 13004KT 20/M03 A3021 RMK A01 T02011030  RH  021%=      5-min Rain = 0
KDC1 141851Z 14003KT 20/M03 A3021 RMK A01 T02001030  RH  021%=      5-min Rain = 0
KDC1 141852Z 15000KT 20/M03 A3021 RMK A01 T01991030  RH  021%=      5-min Rain = 0
KDC1 141853Z 08002KT 20/M03 A3021 RMK A01 T02001030  RH  021%=      5-min Rain = 0
KDC1 141854Z 08003KT 20/M03 A3021 RMK A01 T02011028  RH  021%=      5-min Rain = 0
KDC1 141855Z 08004KT 20/M03 A3021 RMK A01 T02021028  RH  021%=      5-min Rain = 0
KDC1 141856Z 11004KT 20/M03 A302 RMK A01 T02021028  RH  021%=      5-min Rain = 0
KDC1 141857Z 13003KT 20/M03 A302 RMK A01 T02041030  RH  021%=      5-min Rain = 0
KDC1 141858Z 07005KT 20/M03 A302 RMK A01 T02031030  RH  021%=      5-min Rain = 0
KDC1 141859Z 06004KT 20/M03 A302 RMK A01 T02031032  RH  020%=      5-min Rain = 0
KDC1 141900Z 05004KT 20/M03 A302 RMK A01 T02021032  RH  020%=      5-min Rain = 0
KDC1 141901Z 10004KT 20/M03 A302 RMK A01 T02021032  RH  020%=      5-min Rain = 0
KDC1 141902Z 09004KT 20/M03 A302 RMK A01 T02031033  RH  020%=      5-min Rain = 0
KDC1 141903Z 09003KT 20/M04 A302 RMK A01 T02021035  RH  020%=      5-min Rain = 0
KDC1 141904Z 07002KT 20/M03 A302 RMK A01 T02021034  RH  020%=      5-min Rain = 0
KDC1 141905Z 08002KT 20/M04 A302 RMK A01 T02021035  RH  020%=      5-min Rain = 0
KDC1 141906Z 08002KT 20/M04 A302 RMK A01 T02021036  RH  020%=      5-min Rain = 0
KDC1 141907Z 09001KT 20/M04 A302 RMK A01 T02021037  RH  020%=      5-min Rain = 0
KDC1 141908Z 11003KT 20/M04 A302 RMK A01 T02031037  RH  020%=      5-min Rain = 0
KDC1 141909Z 11003KT 20/M04 A302 RMK A01 T02041036  RH  020%=      5-min Rain = 0
KDC1 141910Z 10002KT 21/M04 A302 RMK A01 T02051036  RH  019%=      5-min Rain = 0
KDC1 141911Z 12002KT 21/M04 A3019 RMK A01 T02051036  RH  019%=      5-min Rain = 0
KDC1 141912Z 14000KT 21/M04 A3019 RMK A01 T02071035  RH  019%=      5-min Rain = 0
KDC1 141913Z 10002KT 21/M03 A3019 RMK A01 T02091033  RH  019%=      5-min Rain = 0
KDC1 141914Z 09003KT 21/M03 A3019 RMK A01 T02111034  RH  019%=      5-min Rain = 0
KDC1 141915Z 10005KT 21/M04 A3019 RMK A01 T02121035  RH  019%=      5-min Rain = 0
KDC1 141916Z 11005KT 21/M04 A3019 RMK A01 T02111036  RH  019%=      5-min Rain = 0
KDC1 141917Z 12005KT 21/M04 A3019 RMK A01 T02091036  RH  019%=      5-min Rain = 0
KDC1 141918Z 10005KT 21/M04 A3019 RMK A01 T02071035  RH  019%=      5-min Rain = 0
KDC1 141919Z 12005KT 21/M04 A3019 RMK A01 T02061035  RH  019%=      5-min Rain = 0
KDC1 141920Z 12005KT 21/M04 A3019 RMK A01 T02071036  RH  019%=      5-min Rain = 0
KDC1 141921Z 13005KT 21/M03 A3019 RMK A01 T02091033  RH  019%=      5-min Rain = 0
KDC1 141922Z 12006KT 21/M03 A3019 RMK A01 T02121032  RH  019%=      5-min Rain = 0
KDC1 141923Z 12006KT 21/M03 A3019 RMK A01 T02121033  RH  019%=      5-min Rain = 0
KDC1 141924Z 13004KT 21/M04 A3019 RMK A01 T02131035  RH  019%=      5-min Rain = 0
KDC1 141925Z 13004KT 21/M04 A3019 RMK A01 T02121035  RH  019%=      5-min Rain = 0
KDC1 141926Z 13004KT 21/M03 A3019 RMK A01 T02121033  RH  019%=      5-min Rain = 0
KDC1 141927Z 13003KT 21/M03 A3019 RMK A01 T02121034  RH  019%=      5-min Rain = 0
KDC1 141928Z 14003KT 21/M03 A3018 RMK A01 T02131033  RH  019%=      5-min Rain = 0
KDC1 141929Z 15005KT 21/M03 A3018 RMK A01 T02141034  RH  019%=      5-min Rain = 0
KDC1 141930Z 16004KT 22/M04 A3018 RMK A01 T02161035  RH  018%=      5-min Rain = 0
KDC1 141931Z 15004KT 22/M04 A3018 RMK A01 T02171037  RH  018%=      5-min Rain = 0
KDC1 141932Z 14003KT 22/M04 A3018 RMK A01 T02171037  RH  018%=      5-min Rain = 0
KDC1 141933Z 13004KT 22/M04 A3018 RMK A01 T02171035  RH  018%=      5-min Rain = 0
KDC1 141934Z 13003KT 22/M03 A3018 RMK A01 T02151034  RH  018%=      5-min Rain = 0
KDC1 141935Z 10002KT 22/M03 A3018 RMK A01 T02151034  RH  019%=      5-min Rain = 0
KDC1 141936Z 11003KT 21/M03 A3018 RMK A01 T02141034  RH  019%=      5-min Rain = 0
KDC1 141937Z 12001KT 21/M03 A3018 RMK A01 T02141032  RH  019%=      5-min Rain = 0
KDC1 141938Z 09002KT 21/M03 A3017 RMK A01 T02141032  RH  019%=      5-min Rain = 0
KDC1 141939Z 09004KT 21/M03 A3017 RMK A01 T02141033  RH  019%=      5-min Rain = 0
KDC1 141940Z 11004KT 22/M03 A3017 RMK A01 T02151033  RH  019%=      5-min Rain = 0
KDC1 141941Z 14005KT 22/M03 A3017 RMK A01 T02161033  RH  019%=      5-min Rain = 0
KDC1 141942Z 15004KT 22/M04 A3017 RMK A01 T02181037  RH  018%=      5-min Rain = 0
KDC1 141943Z 13004KT 22/M04 A3017 RMK A01 T02171036  RH  018%=      5-min Rain = 0
KDC1 141944Z 11004KT 22/M03 A3017 RMK A01 T02161030  RH  019%=      5-min Rain = 0
KDC1 141945Z 12003KT 22/M03 A3017 RMK A01 T02161030  RH  019%=      5-min Rain = 0
KDC1 141946Z 11002KT 22/M03 A3017 RMK A01 T02161032  RH  019%=      5-min Rain = 0
KDC1 141947Z 09000KT 22/M03 A3017 RMK A01 T02151031  RH  019%=      5-min Rain = 0
KDC1 141948Z 17001KT 22/M03 A3017 RMK A01 T02161030  RH  019%=      5-min Rain = 0
KDC1 141949Z 14002KT 22/M03 A3017 RMK A01 T02171031  RH  019%=      5-min Rain = 0
KDC1 141950Z 15003KT 22/M03 A3017 RMK A01 T02181033  RH  018%=      5-min Rain = 0
KDC1 141951Z 13003KT 22/M03 A3016 RMK A01 T02181034  RH  018%=      5-min Rain = 0
KDC1 141952Z 12005KT 22/M03 A3016 RMK A01 T02181034  RH  018%=      5-min Rain = 0
KDC1 141953Z 13004KT 22/M03 A3016 RMK A01 T02181034  RH  018%=      5-min Rain = 0
KDC1 141954Z 12004KT 22/M03 A3016 RMK A01 T02171033  RH  018%=      5-min Rain = 0
KDC1 141955Z 12004KT 22/M03 A3016 RMK A01 T02171033  RH  018%=      5-min Rain = 0
KDC1 141956Z 12004KT 22/M03 A3016 RMK A01 T02171031  RH  019%=      5-min Rain = 0
KDC1 141957Z 12003KT 22/M04 A3016 RMK A01 T02161036  RH  018%=      5-min Rain = 0
KDC1 141958Z 15002KT 22/M04 A3016 RMK A01 T02171037  RH  018%=      5-min Rain = 0
KDC1 141959Z 14004KT 22/M04 A3016 RMK A01 T02191035  RH  018%=      5-min Rain = 0
KDC1 142000Z 12003KT 22/M04 A3016 RMK A01 T02191035  RH  018%=      5-min Rain = 0
KDC1 142001Z 12004KT 22/M03 A3016 RMK A01 T02201034  RH  018%=      5-min Rain = 0
KDC1 142002Z 10004KT 22/M03 A3016 RMK A01 T02201032  RH  018%=      5-min Rain = 0
KDC1 142003Z 11004KT 22/M03 A3016 RMK A01 T02191032  RH  018%=      5-min Rain = 0
KDC1 142004Z 13004KT 22/M03 A3016 RMK A01 T02181029  RH  019%=      5-min Rain = 0
KDC1 142005Z 13003KT 22/M03 A3016 RMK A01 T02191030  RH  019%=      5-min Rain = 0
KDC1 142006Z 13002KT 22/M03 A3016 RMK A01 T02201032  RH  018%=      5-min Rain = 0
KDC1 142007Z 12004KT 22/M03 A3016 RMK A01 T02201031  RH  018%=      5-min Rain = 0
KDC1 142008Z 12004KT 22/M03 A3016 RMK A01 T02211030  RH  018%=      5-min Rain = 0
KDC1 142009Z 13004KT 22/M03 A3016 RMK A01 T02211029  RH  019%=      5-min Rain = 0
KDC1 142010Z 15001KT 22/M03 A3016 RMK A01 T02221026  RH  019%=      5-min Rain = 0
KDC1 142011Z 11000KT 22/M03 A3016 RMK A01 T02221029  RH  019%=      5-min Rain = 0
KDC1 142012Z 15001KT 22/M03 A3016 RMK A01 T02231031  RH  018%=      5-min Rain = 0
KDC1 142013Z 13003KT 22/M03 A3016 RMK A01 T02231031  RH  018%=      5-min Rain = 0
KDC1 142014Z 13003KT 22/M03 A3016 RMK A01 T02241030  RH  018%=      5-min Rain = 0
KDC1 142015Z 13002KT 22/M03 A3015 RMK A01 T02241029  RH  018%=      5-min Rain = 0
KDC1 142016Z 13002KT 22/M03 A3015 RMK A01 T02241029  RH  018%=      5-min Rain = 0
KDC1 142017Z 11003KT 22/M03 A3015 RMK A01 T02241030  RH  018%=      5-min Rain = 0
KDC1 142018Z 14002KT 22/M03 A3015 RMK A01 T02241030  RH  018%=      5-min Rain = 0
KDC1 142019Z 20001KT 22/M03 A3015 RMK A01 T02231029  RH  018%=      5-min Rain = 0
KDC1 142020Z 23002KT 23/M03 A3015 RMK A01 T02251026  RH  019%=      5-min Rain = 0
KDC1 142021Z 24003KT 23/M02 A3015 RMK A01 T02251023  RH  019%=      5-min Rain = 0
KDC1 142022Z 21004KT 23/M01 A3015 RMK A01 T02261013  RH  020%=      5-min Rain = 0
KDC1 142023Z 22003KT 23/M01 A3015 RMK A01 T02281014  RH  020%=      5-min Rain = 0
KDC1 142024Z 23008G13KT 23/M01 A3015 RMK A01 T02301007  RH  021%=      5-min Rain = 0
KDC1 142025Z 23013G18KT 23/02 A3014 RMK A01 T02330018  RH  024%=      5-min Rain = 0
KDC1 142026Z 22011KT 24/03 A3014 RMK A01 T02370028  RH  025%=      5-min Rain = 0
KDC1 142027Z 21010G17KT 24/03 A3014 RMK A01 T02390025  RH  025%=      5-min Rain = 0
KDC1 142028Z 22010KT 24/03 A3014 RMK A01 T02400025  RH  024%=      5-min Rain = 0
KDC1 142029Z 23012G18KT 24/03 A3014 RMK A01 T02410030  RH  025%=      5-min Rain = 0
KDC1 142030Z 23010G17KT 24/03 A3014 RMK A01 T02410034  RH  026%=      5-min Rain = 0
KDC1 142031Z 23013G23KT 24/04 A3014 RMK A01 T02410037  RH  026%=      5-min Rain = 0
KDC1 142032Z 22013G20KT 24/04 A3014 RMK A01 T02410035  RH  026%=      5-min Rain = 0
KDC1 142033Z 21011G21KT 24/03 A3014 RMK A01 T02400033  RH  026%=      5-min Rain = 0
KDC1 142034Z 22010G18KT 24/03 A3014 RMK A01 T02390032  RH  026%=      5-min Rain = 0
KDC1 142035Z 24014G19KT 24/03 A3014 RMK A01 T02400034  RH  026%=      5-min Rain = 0
KDC1 142036Z 24015G21KT 24/04 A3014 RMK A01 T02400037  RH  027%=      5-min Rain = 0
KDC1 142037Z 22009KT 24/04 A3014 RMK A01 T02390038  RH  027%=      5-min Rain = 0
KDC1 142038Z 23011G17KT 24/04 A3014 RMK A01 T02380038  RH  027%=      5-min Rain = 0
KDC1 142039Z 23015G21KT 24/04 A3014 RMK A01 T02390037  RH  027%=      5-min Rain = 0
KDC1 142040Z 23014G19KT 24/04 A3014 RMK A01 T02390038  RH  027%=      5-min Rain = 0
KDC1 142041Z 23014G19KT 24/04 A3013 RMK A01 T02400039  RH  027%=      5-min Rain = 0
KDC1 142042Z 23012G18KT 24/04 A3013 RMK A01 T02400037  RH  027%=      5-min Rain = 0
KDC1 142043Z 23013G21KT 24/04 A3013 RMK A01 T02390035  RH  026%=      5-min Rain = 0
KDC1 142044Z 22014G22KT 24/04 A3013 RMK A01 T02390036  RH  027%=      5-min Rain = 0
KDC1 142045Z 22014G20KT 24/04 A3013 RMK A01 T02380037  RH  027%=      5-min Rain = 0
KDC1 142046Z 22014KT 24/04 A3013 RMK A01 T02380037  RH  027%=      5-min Rain = 0
KDC1 142047Z 23012G19KT 24/04 A3013 RMK A01 T02370040  RH  028%=      5-min Rain = 0
KDC1 142048Z 25015KT 24/04 A3013 RMK A01 T02370038  RH  027%=      5-min Rain = 0
KDC1 142049Z 25017KT 24/03 A3013 RMK A01 T02370034  RH  027%=      5-min Rain = 0
KDC1 142050Z 24014G19KT 24/03 A3013 RMK A01 T02370031  RH  026%=      5-min Rain = 0
KDC1 142051Z 23012G17KT 24/04 A3013 RMK A01 T02370036  RH  027%=      5-min Rain = 0
KDC1 142052Z 24011G17KT 24/04 A3013 RMK A01 T02370038  RH  027%=      5-min Rain = 0
KDC1 142053Z 24014G21KT 24/04 A3013 RMK A01 T02370040  RH  028%=      5-min Rain = 0
KDC1 142054Z 24016KT 24/04 A3013 RMK A01 T02380037  RH  027%=      5-min Rain = 0
KDC1 142055Z 25014KT 24/04 A3013 RMK A01 T02380040  RH  028%=      5-min Rain = 0
KDC1 142056Z 26017KT 24/04 A3013 RMK A01 T02380042  RH  028%=      5-min Rain = 0
KDC1 142057Z 24012KT 24/04 A3013 RMK A01 T02370038  RH  027%=      5-min Rain = 0
KDC1 142058Z 24014G20KT 24/04 A3013 RMK A01 T02370038  RH  027%=      5-min Rain = 0
KDC1 142059Z 24017G22KT 24/04 A3012 RMK A01 T02380035  RH  027%=      5-min Rain = 0
KDC1 142100Z 24018G24KT 24/04 A3013 RMK A01 T02410038  RH  027%=      5-min Rain = 0
KDC1 142101Z 23014G20KT 24/04 A3012 RMK A01 T02440037  RH  026%=      5-min Rain = 0
KDC1 142102Z 24013G19KT 25/04 A3012 RMK A01 T02460037  RH  026%=      5-min Rain = 0
KDC1 142103Z 24017G22KT 25/04 A3012 RMK A01 T02470037  RH  026%=      5-min Rain = 0
KDC1 142104Z 25020KT 25/04 A3012 RMK A01 T02460037  RH  026%=      5-min Rain = 0
KDC1 142105Z 25020G26KT 24/04 A3012 RMK A01 T02430035  RH  026%=      5-min Rain = 0
KDC1 142106Z 24012G19KT 24/04 A3012 RMK A01 T02410037  RH  027%=      5-min Rain = 0
KDC1 142107Z 24013G19KT 24/04 A3012 RMK A01 T02400039  RH  027%=      5-min Rain = 0
KDC1 142108Z 24013G20KT 24/04 A3012 RMK A01 T02390035  RH  026%=      5-min Rain = 0
KDC1 142109Z 23010KT 24/04 A3012 RMK A01 T02390035  RH  026%=      5-min Rain = 0
KDC1 142110Z 23015G21KT 24/04 A3012 RMK A01 T02410037  RH  027%=      5-min Rain = 0
KDC1 142111Z 25018KT 24/04 A3012 RMK A01 T02420035  RH  026%=      5-min Rain = 0
KDC1 142112Z 24013G19KT 24/04 A3012 RMK A01 T02410035  RH  026%=      5-min Rain = 0
KDC1 142113Z 25012KT 24/04 A3012 RMK A01 T02410039  RH  027%=      5-min Rain = 0
KDC1 142114Z 25015KT 24/04 A3012 RMK A01 T02420041  RH  027%=      5-min Rain = 0
KDC1 142115Z 23012G20KT 25/05 A3012 RMK A01 T02450045  RH  027%=      5-min Rain = 0
KDC1 142116Z 22016G22KT 25/04 A3012 RMK A01 T02480044  RH  027%=      5-min Rain = 0
KDC1 142117Z 24018KT 25/04 A3012 RMK A01 T02490040  RH  026%=      5-min Rain = 0
KDC1 142118Z 24018G23KT 25/04 A3012 RMK A01 T02500043  RH  026%=      5-min Rain = 0
KDC1 142119Z 24015KT 25/04 A3012 RMK A01 T02490042  RH  026%=      5-min Rain = 0
KDC1 142120Z 24017KT 25/05 A3011 RMK A01 T02480045  RH  027%=      5-min Rain = 0
KDC1 142121Z 25017G24KT 25/05 A3011 RMK A01 T02490045  RH  027%=      5-min Rain = 0
KDC1 142122Z 24019G25KT 25/04 A3011 RMK A01 T02490044  RH  027%=      5-min Rain = 0
KDC1 142123Z 24019KT 25/04 A3011 RMK A01 T02470042  RH  026%=      5-min Rain = 0
KDC1 142124Z 25018KT 25/04 A3011 RMK A01 T02470042  RH  026%=      5-min Rain = 0
KDC1 142125Z 25018KT 25/05 A3011 RMK A01 T02470045  RH  027%=      5-min Rain = 0
KDC1 142126Z 25019G25KT 25/04 A3011 RMK A01 T02480044  RH  027%=      5-min Rain = 0
KDC1 142127Z 25021KT 25/04 A3011 RMK A01 T02490041  RH  026%=      5-min Rain = 0
KDC1 142128Z 25020KT 25/04 A3011 RMK A01 T02480042  RH  026%=      5-min Rain = 0
KDC1 142129Z 25018G24KT 25/05 A3011 RMK A01 T02470046  RH  027%=      5-min Rain = 0
KDC1 142130Z 24014KT 25/04 A3011 RMK A01 T02460041  RH  026%=      5-min Rain = 0
KDC1 142131Z 23012G19KT 25/04 A3011 RMK A01 T02460044  RH  027%=      5-min Rain = 0
KDC1 142132Z 24015G23KT 25/04 A3011 RMK A01 T02480044  RH  027%=      5-min Rain = 0
KDC1 142133Z 24014G19KT 25/04 A3011 RMK A01 T02480042  RH  026%=      5-min Rain = 0
KDC1 142134Z 23012G18KT 25/04 A3011 RMK A01 T02480043  RH  027%=      5-min Rain = 0
KDC1 142135Z 24009KT 25/04 A301 RMK A01 T02470044  RH  027%=      5-min Rain = 0
KDC1 142136Z 24010G15KT 25/05 A301 RMK A01 T02460045  RH  027%=      5-min Rain = 0
KDC1 142137Z 24009KT 25/05 A301 RMK A01 T02460045  RH  027%=      5-min Rain = 0
KDC1 142138Z 25019G24KT 25/05 A301 RMK A01 T02470046  RH  027%=      5-min Rain = 0
KDC1 142139Z 24014G21KT 25/05 A301 RMK A01 T02460046  RH  027%=      5-min Rain = 0
KDC1 142140Z 24019G25KT 25/05 A301 RMK A01 T02450046  RH  028%=      5-min Rain = 0
KDC1 142141Z 24020KT 24/04 A301 RMK A01 T02430044  RH  028%=      5-min Rain = 0
KDC1 142142Z 25023KT 24/04 A301 RMK A01 T02400042  RH  028%=      5-min Rain = 0
KDC1 142143Z 25022KT 24/04 A301 RMK A01 T02390043  RH  028%=      5-min Rain = 0
KDC1 142144Z 25018KT 24/04 A301 RMK A01 T02380042  RH  028%=      5-min Rain = 0
KDC1 142145Z 25022KT 24/04 A301 RMK A01 T02380044  RH  028%=      5-min Rain = 0
KDC1 142146Z 25022KT 24/04 A301 RMK A01 T02380039  RH  027%=      5-min Rain = 0
KDC1 142147Z 24019G26KT 24/04 A301 RMK A01 T02380038  RH  027%=      5-min Rain = 0
KDC1 142148Z 24015G20KT 24/04 A301 RMK A01 T02370043  RH  028%=      5-min Rain = 0
KDC1 142149Z 25012G17KT 24/05 A301 RMK A01 T02370046  RH  029%=      5-min Rain = 0
KDC1 142150Z 25017G22KT 24/05 A301 RMK A01 T02370047  RH  029%=      5-min Rain = 0
KDC1 142151Z 25015G21KT 24/05 A301 RMK A01 T02360045  RH  029%=      5-min Rain = 0
KDC1 142152Z 24011KT 24/05 A301 RMK A01 T02360045  RH  029%=      5-min Rain = 0
KDC1 142153Z 24011KT 24/05 A301 RMK A01 T02370047  RH  029%=      5-min Rain = 0
KDC1 142154Z 25014G20KT 24/05 A3009 RMK A01 T02380047  RH  029%=      5-min Rain = 0
KDC1 142155Z 24016KT 24/05 A3009 RMK A01 T02400046  RH  028%=      5-min Rain = 0
KDC1 142156Z 24015G21KT 24/05 A3009 RMK A01 T02430045  RH  028%=      5-min Rain = 0
KDC1 142157Z 24017KT 25/04 A3009 RMK A01 T02450042  RH  027%=      5-min Rain = 0
KDC1 142158Z 24015KT 25/05 A3009 RMK A01 T02450045  RH  027%=      5-min Rain = 0
KDC1 142159Z 24015G20KT 25/05 A3009 RMK A01 T02460046  RH  027%=      5-min Rain = 0
KDC1 142200Z 24016KT 25/04 A3009 RMK A01 T02450043  RH  027%=      5-min Rain = 0
KDC1 142201Z 24014KT 24/04 A3009 RMK A01 T02440044  RH  027%=      5-min Rain = 0
KDC1 142202Z 24014G21KT 24/04 A3009 RMK A01 T02400042  RH  028%=      5-min Rain = 0
KDC1 142203Z 24014KT 24/04 A3009 RMK A01 T02390043  RH  028%=      5-min Rain = 0
KDC1 142204Z 25016KT 24/04 A3009 RMK A01 T02380042  RH  028%=      5-min Rain = 0
KDC1 142205Z 25015KT 24/04 A3009 RMK A01 T02390042  RH  028%=      5-min Rain = 0
KDC1 142206Z 25015G20KT 24/05 A3009 RMK A01 T02410045  RH  028%=      5-min Rain = 0
KDC1 142207Z 24015G20KT 24/04 A3009 RMK A01 T02420044  RH  028%=      5-min Rain = 0
KDC1 142208Z 25015G20KT 24/04 A3009 RMK A01 T02430044  RH  027%=      5-min Rain = 0
KDC1 142209Z 24014G20KT 24/05 A3009 RMK A01 T02440046  RH  028%=      5-min Rain = 0
KDC1 142210Z 25017KT 25/05 A3009 RMK A01 T02450045  RH  027%=      5-min Rain = 0
KDC1 142211Z 25015KT 25/04 A3009 RMK A01 T02450043  RH  027%=      5-min Rain = 0
KDC1 142212Z 25018KT 25/05 A3009 RMK A01 T02460049  RH  028%=      5-min Rain = 0
KDC1 142213Z 24017G23KT 25/04 A3009 RMK A01 T02460041  RH  027%=      5-min Rain = 0
KDC1 142214Z 25014G20KT 25/04 A3009 RMK A01 T02450039  RH  026%=      5-min Rain = 0
KDC1 142215Z 25016G22KT 24/04 A3009 RMK A01 T02440043  RH  027%=      5-min Rain = 0
KDC1 142216Z 26016KT 24/04 A3009 RMK A01 T02430042  RH  027%=      5-min Rain = 0
KDC1 142217Z 25014KT 24/04 A3009 RMK A01 T02420040  RH  027%=      5-min Rain = 0
KDC1 142218Z 25013KT 24/05 A3009 RMK A01 T02400045  RH  028%=      5-min Rain = 0
KDC1 142219Z 25014KT 24/04 A3009 RMK A01 T02380042  RH  028%=      5-min Rain = 0
KDC1 142220Z 24016G21KT 24/04 A3009 RMK A01 T02370042  RH  028%=      5-min Rain = 0
KDC1 142221Z 25013KT 24/04 A3009 RMK A01 T02360037  RH  027%=      5-min Rain = 0
KDC1 142222Z 25013KT 24/04 A3009 RMK A01 T02360040  RH  028%=      5-min Rain = 0
KDC1 142223Z 25014KT 24/04 A3009 RMK A01 T02360036  RH  027%=      5-min Rain = 0
KDC1 142224Z 24011KT 24/04 A3009 RMK A01 T02360038  RH  027%=      5-min Rain = 0
KDC1 142225Z 24010KT 24/04 A3009 RMK A01 T02360041  RH  028%=      5-min Rain = 0
KDC1 142226Z 24010KT 24/04 A3009 RMK A01 T02350041  RH  028%=      5-min Rain = 0
KDC1 142227Z 25011KT 24/04 A3009 RMK A01 T02350041  RH  028%=      5-min Rain = 0
KDC1 142228Z 25015KT 24/04 A3009 RMK A01 T02350040  RH  028%=      5-min Rain = 0
KDC1 142229Z 24011KT 23/04 A3009 RMK A01 T02340041  RH  029%=      5-min Rain = 0
KDC1 142230Z 25014G19KT 23/04 A3008 RMK A01 T02330041  RH  029%=      5-min Rain = 0
KDC1 142231Z 26015KT 23/04 A3008 RMK A01 T02320038  RH  028%=      5-min Rain = 0
KDC1 142232Z 25015KT 23/04 A3008 RMK A01 T02320036  RH  028%=      5-min Rain = 0
KDC1 142233Z 25013KT 23/03 A3008 RMK A01 T02320033  RH  027%=      5-min Rain = 0
KDC1 142234Z 25012KT 23/03 A3008 RMK A01 T02330033  RH  027%=      5-min Rain = 0
KDC1 142235Z 26011KT 23/04 A3008 RMK A01 T02330036  RH  028%=      5-min Rain = 0
KDC1 142236Z 26012KT 23/04 A3008 RMK A01 T02330039  RH  028%=      5-min Rain = 0
KDC1 142237Z 26012KT 23/04 A3008 RMK A01 T02320039  RH  028%=      5-min Rain = 0
KDC1 142238Z 24014G22KT 23/04 A3008 RMK A01 T02320039  RH  028%=      5-min Rain = 0
KDC1 142239Z 24012KT 23/04 A3008 RMK A01 T02320036  RH  028%=      5-min Rain = 0
KDC1 142240Z 24013KT 23/04 A3008 RMK A01 T02330038  RH  028%=      5-min Rain = 0
KDC1 142241Z 24012KT 23/04 A3008 RMK A01 T02330039  RH  028%=      5-min Rain = 0
KDC1 142242Z 24010G16KT 23/04 A3008 RMK A01 T02330040  RH  028%=      5-min Rain = 0
KDC1 142243Z 23012G19KT 23/04 A3008 RMK A01 T02330039  RH  028%=      5-min Rain = 0
KDC1 142244Z 25014KT 23/04 A3008 RMK A01 T02330037  RH  028%=      5-min Rain = 0
KDC1 142245Z 26013KT 23/04 A3008 RMK A01 T02340041  RH  029%=      5-min Rain = 0
KDC1 142246Z 25012KT 23/04 A3008 RMK A01 T02340043  RH  029%=      5-min Rain = 0
KDC1 142247Z 26015KT 23/04 A3007 RMK A01 T02330042  RH  029%=      5-min Rain = 0
KDC1 142248Z 25013KT 23/04 A3007 RMK A01 T02330041  RH  029%=      5-min Rain = 0
KDC1 142249Z 25012KT 23/05 A3007 RMK A01 T02340046  RH  029%=      5-min Rain = 0
KDC1 142250Z 24010KT 24/05 A3007 RMK A01 T02350045  RH  029%=      5-min Rain = 0
KDC1 142251Z 25009KT 24/05 A3007 RMK A01 T02360045  RH  029%=      5-min Rain = 0
KDC1 142252Z 25009KT 24/05 A3007 RMK A01 T02390047  RH  029%=      5-min Rain = 0
KDC1 142253Z 25014G19KT 24/05 A3007 RMK A01 T02400045  RH  028%=      5-min Rain = 0
KDC1 142254Z 26014KT 24/04 A3007 RMK A01 T02400041  RH  027%=      5-min Rain = 0
KDC1 142255Z 26014KT 24/04 A3007 RMK A01 T02400040  RH  027%=      5-min Rain = 0
KDC1 142256Z 26016KT 24/04 A3007 RMK A01 T02400040  RH  027%=      5-min Rain = 0
KDC1 142257Z 26014KT 24/04 A3007 RMK A01 T02390036  RH  027%=      5-min Rain = 0
KDC1 142258Z 25013KT 24/04 A3007 RMK A01 T02380038  RH  027%=      5-min Rain = 0
KDC1 142259Z 25012KT 24/04 A3007 RMK A01 T02370038  RH  027%=      5-min Rain = 0
KDC1 142300Z 24009KT 24/04 A3007 RMK A01 T02360042  RH  028%=      5-min Rain = 0
KDC1 142301Z 24009KT 23/05 A3007 RMK A01 T02340048  RH  030%=      5-min Rain = 0
KDC1 142302Z 25013KT 23/05 A3007 RMK A01 T02340045  RH  029%=      5-min Rain = 0
KDC1 142303Z 26013KT 23/04 A3007 RMK A01 T02340036  RH  028%=      5-min Rain = 0
KDC1 142304Z 26011KT 23/04 A3007 RMK A01 T02340037  RH  028%=      5-min Rain = 0
KDC1 142305Z 26010KT 24/04 A3007 RMK A01 T02350038  RH  028%=      5-min Rain = 0
KDC1 142306Z 26011KT 24/04 A3007 RMK A01 T02350039  RH  028%=      5-min Rain = 0
KDC1 142307Z 26010KT 24/04 A3007 RMK A01 T02350035  RH  027%=      5-min Rain = 0
KDC1 142308Z 26011KT 24/03 A3007 RMK A01 T02350034  RH  027%=      5-min Rain = 0
KDC1 142309Z 27012KT 24/04 A3007 RMK A01 T02350035  RH  027%=      5-min Rain = 0
KDC1 142310Z 26012KT 24/04 A3007 RMK A01 T02350036  RH  027%=      5-min Rain = 0
KDC1 142311Z 26012KT 24/04 A3007 RMK A01 T02350035  RH  027%=      5-min Rain = 0
KDC1 142312Z 25012KT 24/04 A3007 RMK A01 T02350037  RH  027%=      5-min Rain = 0
KDC1 142313Z 25013KT 24/04 A3007 RMK A01 T02350038  RH  028%=      5-min Rain = 0
KDC1 142314Z 25013KT 23/04 A3007 RMK A01 T02340037  RH  028%=      5-min Rain = 0
KDC1 142315Z 26012KT 23/04 A3007 RMK A01 T02330039  RH  028%=      5-min Rain = 0
KDC1 142316Z 25012KT 23/03 A3007 RMK A01 T02340034  RH  027%=      5-min Rain = 0
KDC1 142317Z 24009KT 23/04 A3007 RMK A01 T02340039  RH  028%=      5-min Rain = 0
KDC1 142318Z 25012KT 23/04 A3007 RMK A01 T02340041  RH  028%=      5-min Rain = 0
KDC1 142319Z 25011KT 24/04 A3007 RMK A01 T02350036  RH  027%=      5-min Rain = 0
KDC1 142320Z 25011KT 24/04 A3007 RMK A01 T02360040  RH  028%=      5-min Rain = 0
KDC1 142321Z 25011KT 24/04 A3007 RMK A01 T02370038  RH  027%=      5-min Rain = 0
KDC1 142322Z 25009KT 24/04 A3008 RMK A01 T02370042  RH  028%=      5-min Rain = 0
KDC1 142323Z 24009KT 24/04 A3008 RMK A01 T02380042  RH  028%=      5-min Rain = 0
KDC1 142324Z 25010KT 24/05 A3008 RMK A01 T02390045  RH  028%=      5-min Rain = 0
KDC1 142325Z 25012KT 24/04 A3007 RMK A01 T02410043  RH  028%=      5-min Rain = 0
KDC1 142326Z 25011KT 24/04 A3007 RMK A01 T02420042  RH  027%=      5-min Rain = 0
KDC1 142327Z 25012KT 24/04 A3007 RMK A01 T02430036  RH  026%=      5-min Rain = 0
KDC1 142328Z 24012KT 24/04 A3007 RMK A01 T02430037  RH  026%=      5-min Rain = 0
KDC1 142329Z 26013KT 24/04 A3007 RMK A01 T02430040  RH  027%=      5-min Rain = 0
KDC1 142330Z 25012KT 24/04 A3007 RMK A01 T02430040  RH  027%=      5-min Rain = 0
KDC1 142331Z 25013KT 24/04 A3007 RMK A01 T02430041  RH  027%=      5-min Rain = 0
KDC1 142332Z 25012KT 24/04 A3007 RMK A01 T02420037  RH  026%=      5-min Rain = 0
KDC1 142333Z 24009KT 24/04 A3007 RMK A01 T02420041  RH  027%=      5-min Rain = 0
KDC1 142334Z 25011KT 24/04 A3007 RMK A01 T02400043  RH  028%=      5-min Rain = 0
KDC1 142335Z 25009KT 24/04 A3007 RMK A01 T02400038  RH  027%=      5-min Rain = 0
KDC1 142336Z 25008KT 24/04 A3008 RMK A01 T02390043  RH  028%=      5-min Rain = 0
KDC1 142337Z 25010KT 24/04 A3008 RMK A01 T02390041  RH  028%=      5-min Rain = 0
KDC1 142338Z 25011KT 24/04 A3008 RMK A01 T02380043  RH  028%=      5-min Rain = 0
KDC1 142339Z 25010KT 24/05 A3008 RMK A01 T02360046  RH  029%=      5-min Rain = 0
KDC1 142340Z 25010KT 24/05 A3008 RMK A01 T02350047  RH  030%=      5-min Rain = 0
KDC1 142341Z 25009G14KT 23/05 A3008 RMK A01 T02330046  RH  030%=      5-min Rain = 0
KDC1 142342Z 25012KT 23/05 A3008 RMK A01 T02320045  RH  030%=      5-min Rain = 0
KDC1 142343Z 25011KT 23/04 A3008 RMK A01 T02320037  RH  028%=      5-min Rain = 0
KDC1 142344Z 25011KT 23/04 A3008 RMK A01 T02310035  RH  028%=      5-min Rain = 0
KDC1 142345Z 26012KT 23/04 A3008 RMK A01 T02310038  RH  028%=      5-min Rain = 0
KDC1 142346Z 25012KT 23/04 A3007 RMK A01 T02310037  RH  028%=      5-min Rain = 0
KDC1 142347Z 24010KT 23/04 A3008 RMK A01 T02300039  RH  029%=      5-min Rain = 0
KDC1 142348Z 24009KT 23/04 A3007 RMK A01 T02290039  RH  029%=      5-min Rain = 0
KDC1 142349Z 25011KT 23/04 A3007 RMK A01 T02290036  RH  028%=      5-min Rain = 0
KDC1 142350Z 26010KT 23/04 A3007 RMK A01 T02290037  RH  029%=      5-min Rain = 0
KDC1 142351Z 26010KT 23/04 A3007 RMK A01 T02280040  RH  029%=      5-min Rain = 0
KDC1 142352Z 26011KT 23/04 A3007 RMK A01 T02270039  RH  029%=      5-min Rain = 0
KDC1 142353Z 26009KT 23/04 A3007 RMK A01 T02270037  RH  029%=      5-min Rain = 0
KDC1 142354Z 27009KT 23/04 A3007 RMK A01 T02280039  RH  029%=      5-min Rain = 0
KDC1 142355Z 27010KT 23/04 A3007 RMK A01 T02280040  RH  029%=      5-min Rain = 0
KDC1 142356Z 27009KT 23/04 A3007 RMK A01 T02270038  RH  029%=      5-min Rain = 0
KDC1 142357Z 26009KT 23/04 A3007 RMK A01 T02270038  RH  029%=      5-min Rain = 0
KDC1 142358Z 26009KT 23/04 A3007 RMK A01 T02260038  RH  029%=      5-min Rain = 0
KDC1 142359Z 26008KT 23/04 A3007 RMK A01 T02260039  RH  030%=      5-min Rain = 0
KDC1 150000Z 27009KT 23/04 A3007 RMK A01 T02250040  RH  030%=      5-min Rain = 0
KDC1 150001Z 27009KT 22/04 A3008 RMK A01 T02240040  RH  030%=      5-min Rain = 0
KDC1 150002Z 27009KT 22/04 A3008 RMK A01 T02230040  RH  030%=      5-min Rain = 0
KDC1 150003Z 26008KT 22/04 A3008 RMK A01 T02220040  RH  030%=      5-min Rain = 0
KDC1 150004Z 27009KT 22/04 A3008 RMK A01 T02210040  RH  031%=      5-min Rain = 0
KDC1 150005Z 26009KT 22/04 A3008 RMK A01 T02210039  RH  030%=      5-min Rain = 0
KDC1 150006Z 26009KT 22/04 A3007 RMK A01 T02210036  RH  030%=      5-min Rain = 0
KDC1 150007Z 27009KT 22/04 A3007 RMK A01 T02230036  RH  029%=      5-min Rain = 0
KDC1 150008Z 26008KT 22/04 A3007 RMK A01 T02220040  RH  030%=      5-min Rain = 0
KDC1 150009Z 26008KT 22/04 A3008 RMK A01 T02210041  RH  031%=      5-min Rain = 0
KDC1 150010Z 26008KT 22/04 A3007 RMK A01 T02190040  RH  031%=      5-min Rain = 0
KDC1 150011Z 26009KT 22/04 A3007 RMK A01 T02190041  RH  031%=      5-min Rain = 0
KDC1 150012Z 26010KT 22/04 A3007 RMK A01 T02190040  RH  031%=      5-min Rain = 0
KDC1 150013Z 26010KT 22/04 A3007 RMK A01 T02200039  RH  030%=      5-min Rain = 0
KDC1 150014Z 27009KT 22/04 A3007 RMK A01 T02210040  RH  031%=      5-min Rain = 0
KDC1 150015Z 27009KT 22/04 A3007 RMK A01 T02210041  RH  031%=      5-min Rain = 0
KDC1 150016Z 27009KT 22/04 A3007 RMK A01 T02210040  RH  031%=      5-min Rain = 0
KDC1 150017Z 27009KT 22/04 A3007 RMK A01 T02200039  RH  030%=      5-min Rain = 0
KDC1 150018Z 27009KT 22/04 A3007 RMK A01 T02200039  RH  031%=      5-min Rain = 0
KDC1 150019Z 27009KT 22/04 A3007 RMK A01 T02190037  RH  030%=      5-min Rain = 0
KDC1 150020Z 27008KT 22/04 A3007 RMK A01 T02190037  RH  030%=      5-min Rain = 0
KDC1 150021Z 27007KT 22/04 A3007 RMK A01 T02170037  RH  031%=      5-min Rain = 0
KDC1 150022Z 27006KT 22/04 A3007 RMK A01 T02150039  RH  031%=      5-min Rain = 0
KDC1 150023Z 27007KT 21/04 A3007 RMK A01 T02130040  RH  032%=      5-min Rain = 0
KDC1 150024Z 27009KT 21/04 A3007 RMK A01 T02100038  RH  032%=      5-min Rain = 0
KDC1 150025Z 27009KT 21/04 A3007 RMK A01 T02090038  RH  032%=      5-min Rain = 0
KDC1 150026Z 27010KT 21/04 A3007 RMK A01 T02080037  RH  032%=      5-min Rain = 0
KDC1 150027Z 27009KT 21/04 A3007 RMK A01 T02070037  RH  033%=      5-min Rain = 0
KDC1 150028Z 27008KT 21/04 A3007 RMK A01 T02070036  RH  033%=      5-min Rain = 0
KDC1 150029Z 27009KT 21/04 A3007 RMK A01 T02060036  RH  033%=      5-min Rain = 0
KDC1 150030Z 27008KT 21/03 A3007 RMK A01 T02050034  RH  032%=      5-min Rain = 0
KDC1 150031Z 27008KT 20/03 A3007 RMK A01 T02040033  RH  032%=      5-min Rain = 0
KDC1 150032Z 27009KT 20/03 A3007 RMK A01 T02040034  RH  033%=      5-min Rain = 0
KDC1 150033Z 26011KT 20/04 A3007 RMK A01 T02030035  RH  033%=      5-min Rain = 0
KDC1 150034Z 26012KT 21/04 A3007 RMK A01 T02050035  RH  033%=      5-min Rain = 0
KDC1 150035Z 26013KT 21/03 A3007 RMK A01 T02070034  RH  032%=      5-min Rain = 0
KDC1 150036Z 26013KT 21/03 A3007 RMK A01 T02090034  RH  032%=      5-min Rain = 0
KDC1 150037Z 26013KT 21/03 A3007 RMK A01 T02100034  RH  031%=      5-min Rain = 0
KDC1 150038Z 26011KT 21/03 A3007 RMK A01 T02100033  RH  031%=      5-min Rain = 0
KDC1 150039Z 26010KT 21/03 A3007 RMK A01 T02110034  RH  031%=      5-min Rain = 0
KDC1 150040Z 26011KT 21/04 A3007 RMK A01 T02090035  RH  032%=      5-min Rain = 0
KDC1 150041Z 26011KT 21/03 A3007 RMK A01 T02090034  RH  031%=      5-min Rain = 0
KDC1 150042Z 26011KT 21/04 A3007 RMK A01 T02090035  RH  032%=      5-min Rain = 0
KDC1 150043Z 26010KT 21/04 A3007 RMK A01 T02080035  RH  032%=      5-min Rain = 0
KDC1 150044Z 26010KT 21/03 A3007 RMK A01 T02060034  RH  032%=      5-min Rain = 0
KDC1 150045Z 26010KT 21/03 A3007 RMK A01 T02050034  RH  032%=      5-min Rain = 0
KDC1 150046Z 26011KT 20/04 A3007 RMK A01 T02040035  RH  033%=      5-min Rain = 0
KDC1 150047Z 26011KT 20/04 A3007 RMK A01 T02020035  RH  033%=      5-min Rain = 0
KDC1 150048Z 26010KT 20/04 A3007 RMK A01 T02000036  RH  034%=      5-min Rain = 0
KDC1 150049Z 26010KT 20/04 A3007 RMK A01 T01980035  RH  034%=      5-min Rain = 0
KDC1 150050Z 26010KT 20/04 A3007 RMK A01 T01960035  RH  034%=      5-min Rain = 0
KDC1 150051Z 26010KT 20/04 A3007 RMK A01 T01950036  RH  035%=      5-min Rain = 0
KDC1 150052Z 26010KT 19/04 A3007 RMK A01 T01940037  RH  035%=      5-min Rain = 0
KDC1 150053Z 27010KT 19/04 A3007 RMK A01 T01930037  RH  036%=      5-min Rain = 0
KDC1 150054Z 27011KT 19/04 A3007 RMK A01 T01910037  RH  036%=      5-min Rain = 0
KDC1 150055Z 27011KT 19/03 A3007 RMK A01 T01890034  RH  036%=      5-min Rain = 0
KDC1 150056Z 27012KT 19/03 A3007 RMK A01 T01880033  RH  036%=      5-min Rain = 0
KDC1 150057Z 27011KT 19/03 A3007 RMK A01 T01890029  RH  035%=      5-min Rain = 0
KDC1 150058Z 27010KT 19/03 A3007 RMK A01 T01910028  RH  034%=      5-min Rain = 0
KDC1 150059Z 27010KT 19/03 A3007 RMK A01 T01910027  RH  034%=      5-min Rain = 0
KDC1 150100Z 27011KT 19/03 A3007 RMK A01 T01890029  RH  034%=      5-min Rain = 0
KDC1 150101Z 27011KT 19/03 A3007 RMK A01 T01880027  RH  034%=      5-min Rain = 0
KDC1 150102Z 28011KT 19/03 A3007 RMK A01 T01880026  RH  034%=      5-min Rain = 0
KDC1 150103Z 28012KT 19/03 A3007 RMK A01 T01880027  RH  034%=      5-min Rain = 0
KDC1 150104Z 27012KT 19/03 A3007 RMK A01 T01870027  RH  034%=      5-min Rain = 0
KDC1 150105Z 28012KT 19/03 A3007 RMK A01 T01870027  RH  034%=      5-min Rain = 0
KDC1 150106Z 28012KT 19/03 A3007 RMK A01 T01860027  RH  035%=      5-min Rain = 0
KDC1 150107Z 28012KT 19/03 A3007 RMK A01 T01850026  RH  035%=      5-min Rain = 0
KDC1 150108Z 28012KT 19/03 A3007 RMK A01 T01850026  RH  035%=      5-min Rain = 0
KDC1 150109Z 28012KT 18/03 A3007 RMK A01 T01840026  RH  035%=      5-min Rain = 0
KDC1 150110Z 28012KT 18/03 A3007 RMK A01 T01840026  RH  035%=      5-min Rain = 0
KDC1 150111Z 28012KT 18/03 A3007 RMK A01 T01830025  RH  035%=      5-min Rain = 0
KDC1 150112Z 28011KT 18/03 A3007 RMK A01 T01820025  RH  035%=      5-min Rain = 0
KDC1 150113Z 28011KT 18/03 A3007 RMK A01 T01810026  RH  035%=      5-min Rain = 0
KDC1 150114Z 28011KT 18/03 A3007 RMK A01 T01790026  RH  036%=      5-min Rain = 0
KDC1 150115Z 28011KT 18/03 A3007 RMK A01 T01770026  RH  036%=      5-min Rain = 0
KDC1 150116Z 28012KT 18/03 A3007 RMK A01 T01750026  RH  037%=      5-min Rain = 0
KDC1 150117Z 28012KT 17/03 A3007 RMK A01 T01730026  RH  037%=      5-min Rain = 0
KDC1 150118Z 28012KT 17/03 A3007 RMK A01 T01730026  RH  037%=      5-min Rain = 0
KDC1 150119Z 28012KT 17/03 A3008 RMK A01 T01720025  RH  037%=      5-min Rain = 0
KDC1 150120Z 28012KT 17/02 A3008 RMK A01 T01710024  RH  037%=      5-min Rain = 0
KDC1 150121Z 28011KT 17/02 A3007 RMK A01 T01700024  RH  038%=      5-min Rain = 0
KDC1 150122Z 28011KT 17/02 A3007 RMK A01 T01690024  RH  038%=      5-min Rain = 0
KDC1 150123Z 28011KT 17/02 A3008 RMK A01 T01690024  RH  038%=      5-min Rain = 0
KDC1 150124Z 28011KT 17/02 A3008 RMK A01 T01670024  RH  038%=      5-min Rain = 0
KDC1 150125Z 28011KT 17/02 A3008 RMK A01 T01660024  RH  038%=      5-min Rain = 0
KDC1 150126Z 28011KT 17/02 A3008 RMK A01 T01650023  RH  038%=      5-min Rain = 0
KDC1 150127Z 28011KT 17/02 A3008 RMK A01 T01650023  RH  038%=      5-min Rain = 0
KDC1 150128Z 28011KT 16/02 A3008 RMK A01 T01640022  RH  038%=      5-min Rain = 0
KDC1 150129Z 28010KT 16/02 A3008 RMK A01 T01640022  RH  038%=      5-min Rain = 0
KDC1 150130Z 28010KT 16/02 A3008 RMK A01 T01630021  RH  038%=      5-min Rain = 0
KDC1 150131Z 28010KT 16/02 A3008 RMK A01 T01630021  RH  038%=      5-min Rain = 0
KDC1 150132Z 28010KT 16/02 A3008 RMK A01 T01620021  RH  038%=      5-min Rain = 0
KDC1 150133Z 28009KT 16/02 A3008 RMK A01 T01610021  RH  039%=      5-min Rain = 0
KDC1 150134Z 29009KT 16/02 A3008 RMK A01 T01600020  RH  039%=      5-min Rain = 0
KDC1 150135Z 29009KT 16/02 A3008 RMK A01 T01590020  RH  039%=      5-min Rain = 0
KDC1 150136Z 28008KT 16/02 A3008 RMK A01 T01580021  RH  039%=      5-min Rain = 0
KDC1 150137Z 28008KT 16/02 A3008 RMK A01 T01570021  RH  040%=      5-min Rain = 0
KDC1 150138Z 28008KT 16/02 A3008 RMK A01 T01560019  RH  040%=      5-min Rain = 0
KDC1 150139Z 28007KT 16/02 A3009 RMK A01 T01550020  RH  040%=      5-min Rain = 0
KDC1 150140Z 29007KT 15/02 A3009 RMK A01 T01540019  RH  040%=      5-min Rain = 0
KDC1 150141Z 28007KT 15/02 A3009 RMK A01 T01530019  RH  040%=      5-min Rain = 0
KDC1 150142Z 28007KT 15/02 A3009 RMK A01 T01530017  RH  040%=      5-min Rain = 0
KDC1 150143Z 28007KT 15/02 A3009 RMK A01 T01540018  RH  040%=      5-min Rain = 0
KDC1 150144Z 28006KT 15/02 A3009 RMK A01 T01540018  RH  040%=      5-min Rain = 0
KDC1 150145Z 28006KT 15/02 A3009 RMK A01 T01540018  RH  040%=      5-min Rain = 0
KDC1 150146Z 28006KT 16/02 A3009 RMK A01 T01550016  RH  039%=      5-min Rain = 0
KDC1 150147Z 28006KT 16/02 A3009 RMK A01 T01560015  RH  038%=      5-min Rain = 0
KDC1 150148Z 28006KT 16/02 A3009 RMK A01 T01580015  RH  038%=      5-min Rain = 0
KDC1 150149Z 27005KT 16/01 A3009 RMK A01 T01600014  RH  037%=      5-min Rain = 0
KDC1 150150Z 27004KT 16/01 A3009 RMK A01 T01610014  RH  037%=      5-min Rain = 0
KDC1 150151Z 27004KT 16/02 A3009 RMK A01 T01640015  RH  036%=      5-min Rain = 0
KDC1 150152Z 27004KT 17/02 A3009 RMK A01 T01670015  RH  036%=      5-min Rain = 0
KDC1 150153Z 26003KT 17/02 A3009 RMK A01 T01690015  RH  035%=      5-min Rain = 0
KDC1 150154Z 27003KT 17/02 A3009 RMK A01 T01710015  RH  035%=      5-min Rain = 0
KDC1 150155Z 26003KT 17/02 A3009 RMK A01 T01720015  RH  035%=      5-min Rain = 0
KDC1 150156Z 26003KT 17/02 A3009 RMK A01 T01730016  RH  035%=      5-min Rain = 0
KDC1 150157Z 25003KT 17/03 A3009 RMK A01 T01740028  RH  038%=      5-min Rain = 0
KDC1 150158Z 25003KT 17/03 A3009 RMK A01 T01730031  RH  039%=      5-min Rain = 0
KDC1 150159Z 25002KT 17/03 A3009 RMK A01 T01710030  RH  039%=      5-min Rain = 0
KDC1 150200Z 24002KT 17/03 A3009 RMK A01 T01700030  RH  039%=      5-min Rain = 0
KDC1 150201Z 24002KT 17/04 A3009 RMK A01 T01700037  RH  041%=      5-min Rain = 0
KDC1 150202Z 24002KT 17/03 A3009 RMK A01 T01690033  RH  040%=      5-min Rain = 0
KDC1 150203Z 23001KT 17/03 A3009 RMK A01 T01680027  RH  039%=      5-min Rain = 0
KDC1 150204Z 26001KT 17/03 A3009 RMK A01 T01680029  RH  039%=      5-min Rain = 0
KDC1 150205Z 21001KT 17/03 A3009 RMK A01 T01680031  RH  040%=      5-min Rain = 0
KDC1 150206Z 17002KT 17/03 A3009 RMK A01 T01690026  RH  038%=      5-min Rain = 0
KDC1 150207Z 22001KT 17/02 A3009 RMK A01 T01690023  RH  038%=      5-min Rain = 0
KDC1 150208Z 21001KT 17/02 A3009 RMK A01 T01700021  RH  037%=      5-min Rain = 0
KDC1 150209Z 19001KT 17/02 A3009 RMK A01 T01710023  RH  037%=      5-min Rain = 0
KDC1 150210Z 22001KT 17/03 A3009 RMK A01 T01710026  RH  038%=      5-min Rain = 0
KDC1 150211Z 21002KT 17/03 A3009 RMK A01 T01720028  RH  038%=      5-min Rain = 0
KDC1 150212Z 21002KT 17/02 A3009 RMK A01 T01720023  RH  037%=      5-min Rain = 0
KDC1 150213Z 23003KT 17/03 A3009 RMK A01 T01730026  RH  037%=      5-min Rain = 0
KDC1 150214Z 23003KT 17/02 A3009 RMK A01 T01730023  RH  037%=      5-min Rain = 0
KDC1 150215Z 23003KT 17/02 A3009 RMK A01 T01720020  RH  036%=      5-min Rain = 0
KDC1 150216Z 24003KT 17/02 A3009 RMK A01 T01720019  RH  036%=      5-min Rain = 0
KDC1 150217Z 24003KT 17/02 A3009 RMK A01 T01710018  RH  036%=      5-min Rain = 0
KDC1 150218Z 24003KT 17/02 A3009 RMK A01 T01710017  RH  035%=      5-min Rain = 0
KDC1 150219Z 24003KT 17/02 A3009 RMK A01 T01710017  RH  035%=      5-min Rain = 0
KDC1 150220Z 24003KT 17/02 A3009 RMK A01 T01710016  RH  035%=      5-min Rain = 0
KDC1 150221Z 25004KT 17/02 A3009 RMK A01 T01710016  RH  035%=      5-min Rain = 0
KDC1 150222Z 25004KT 17/02 A3009 RMK A01 T01710016  RH  035%=      5-min Rain = 0
KDC1 150223Z 25004KT 17/02 A3009 RMK A01 T01700016  RH  035%=      5-min Rain = 0
KDC1 150224Z 24004KT 17/02 A3009 RMK A01 T01690015  RH  035%=      5-min Rain = 0
KDC1 150225Z 24004KT 17/02 A3009 RMK A01 T01690015  RH  035%=      5-min Rain = 0
KDC1 150226Z 25004KT 17/02 A3009 RMK A01 T01680015  RH  036%=      5-min Rain = 0
KDC1 150227Z 24004KT 17/02 A3009 RMK A01 T01670016  RH  036%=      5-min Rain = 0
KDC1 150228Z 25004KT 17/02 A3009 RMK A01 T01660015  RH  036%=      5-min Rain = 0
KDC1 150229Z 25004KT 17/02 A3009 RMK A01 T01650015  RH  036%=      5-min Rain = 0
KDC1 150230Z 25004KT 17/02 A3009 RMK A01 T01650015  RH  036%=      5-min Rain = 0
KDC1 150231Z 24004KT 16/02 A3009 RMK A01 T01640015  RH  037%=      5-min Rain = 0
KDC1 150232Z 25004KT 16/02 A3009 RMK A01 T01630016  RH  037%=      5-min Rain = 0
KDC1 150233Z 25004KT 16/02 A3009 RMK A01 T01610016  RH  037%=      5-min Rain = 0
KDC1 150234Z 25005KT 16/02 A3009 RMK A01 T01610017  RH  038%=      5-min Rain = 0
KDC1 150235Z 25005KT 16/02 A3009 RMK A01 T01610016  RH  038%=      5-min Rain = 0
KDC1 150236Z 25005KT 16/02 A3009 RMK A01 T01610017  RH  038%=      5-min Rain = 0
KDC1 150237Z 25004KT 16/02 A3009 RMK A01 T01600017  RH  038%=      5-min Rain = 0
KDC1 150238Z 26004KT 16/02 A3009 RMK A01 T01600016  RH  038%=      5-min Rain = 0
KDC1 150239Z 26004KT 16/02 A3009 RMK A01 T01600015  RH  038%=      5-min Rain = 0
KDC1 150240Z 25003KT 16/02 A3009 RMK A01 T01590015  RH  038%=      5-min Rain = 0
KDC1 150241Z 24003KT 16/01 A3009 RMK A01 T01580014  RH  038%=      5-min Rain = 0
KDC1 150242Z 23003KT 16/02 A3009 RMK A01 T01570015  RH  038%=      5-min Rain = 0
KDC1 150243Z 23004KT 16/01 A3009 RMK A01 T01570014  RH  038%=      5-min Rain = 0
KDC1 150244Z 24003KT 16/01 A3009 RMK A01 T01570014  RH  038%=      5-min Rain = 0
KDC1 150245Z 25003KT 16/02 A3009 RMK A01 T01570015  RH  038%=      5-min Rain = 0
KDC1 150246Z 25004KT 16/02 A3009 RMK A01 T01560017  RH  039%=      5-min Rain = 0
KDC1 150247Z 26004KT 16/02 A3009 RMK A01 T01550017  RH  039%=      5-min Rain = 0
KDC1 150248Z 27004KT 16/02 A3009 RMK A01 T01550015  RH  039%=      5-min Rain = 0
KDC1 150249Z 27004KT 16/02 A3009 RMK A01 T01560015  RH  039%=      5-min Rain = 0
KDC1 150250Z 26004KT 15/02 A3009 RMK A01 T01540015  RH  039%=      5-min Rain = 0
KDC1 150251Z 26004KT 15/02 A3009 RMK A01 T01530016  RH  040%=      5-min Rain = 0
KDC1 150252Z 26004KT 15/02 A3009 RMK A01 T01520017  RH  040%=      5-min Rain = 0
KDC1 150253Z 25003KT 15/02 A3009 RMK A01 T01520015  RH  039%=      5-min Rain = 0
KDC1 150254Z 25004KT 15/01 A3009 RMK A01 T01530014  RH  039%=      5-min Rain = 0
KDC1 150255Z 25004KT 15/02 A3009 RMK A01 T01540015  RH  039%=      5-min Rain = 0
KDC1 150256Z 25004KT 16/02 A3009 RMK A01 T01550017  RH  039%=      5-min Rain = 0
KDC1 150257Z 26004KT 16/02 A3009 RMK A01 T01550018  RH  039%=      5-min Rain = 0
KDC1 150258Z 26004KT 16/02 A3009 RMK A01 T01550017  RH  039%=      5-min Rain = 0
KDC1 150259Z 26004KT 16/02 A3009 RMK A01 T01550019  RH  040%=      5-min Rain = 0
KDC1 150300Z 27005KT 16/02 A3009 RMK A01 T01550020  RH  040%=      5-min Rain = 0
KDC1 150301Z 27004KT 15/02 A3009 RMK A01 T01530020  RH  040%=      5-min Rain = 0
KDC1 150302Z 27005KT 15/02 A3009 RMK A01 T01510021  RH  041%=      5-min Rain = 0
KDC1 150303Z 27005KT 15/02 A3009 RMK A01 T01480022  RH  043%=      5-min Rain = 0
KDC1 150304Z 28005KT 15/02 A301 RMK A01 T01450022  RH  044%=      5-min Rain = 0
KDC1 150305Z 28005KT 14/02 A301 RMK A01 T01440022  RH  044%=      5-min Rain = 0
KDC1 150306Z 28005KT 14/02 A301 RMK A01 T01440021  RH  043%=      5-min Rain = 0
KDC1 150307Z 28005KT 14/02 A301 RMK A01 T01430021  RH  044%=      5-min Rain = 0
KDC1 150308Z 28005KT 14/02 A301 RMK A01 T01420021  RH  044%=      5-min Rain = 0
KDC1 150309Z 28005KT 14/02 A301 RMK A01 T01410021  RH  044%=      5-min Rain = 0
KDC1 150310Z 28005KT 14/02 A301 RMK A01 T01390022  RH  045%=      5-min Rain = 0
KDC1 150311Z 28004KT 14/02 A301 RMK A01 T01380022  RH  045%=      5-min Rain = 0
KDC1 150312Z 28004KT 14/02 A301 RMK A01 T01370022  RH  046%=      5-min Rain = 0
KDC1 150313Z 28004KT 14/02 A301 RMK A01 T01370022  RH  046%=      5-min Rain = 0
KDC1 150314Z 28004KT 14/02 A301 RMK A01 T01370023  RH  046%=      5-min Rain = 0
KDC1 150315Z 28005KT 14/02 A301 RMK A01 T01370022  RH  046%=      5-min Rain = 0
KDC1 150316Z 28006KT 14/02 A301 RMK A01 T01380023  RH  046%=      5-min Rain = 0
KDC1 150317Z 28005KT 14/02 A301 RMK A01 T01380024  RH  046%=      5-min Rain = 0
KDC1 150318Z 28005KT 14/02 A301 RMK A01 T01380024  RH  046%=      5-min Rain = 0
KDC1 150319Z 28005KT 14/02 A301 RMK A01 T01380024  RH  046%=      5-min Rain = 0
KDC1 150320Z 28005KT 14/02 A301 RMK A01 T01380023  RH  046%=      5-min Rain = 0
KDC1 150321Z 28005KT 14/02 A301 RMK A01 T01380022  RH  045%=      5-min Rain = 0
KDC1 150322Z 28005KT 14/02 A301 RMK A01 T01380022  RH  046%=      5-min Rain = 0
KDC1 150323Z 28005KT 14/02 A301 RMK A01 T01390024  RH  046%=      5-min Rain = 0
KDC1 150324Z 28006KT 14/02 A301 RMK A01 T01410024  RH  045%=      5-min Rain = 0
KDC1 150325Z 28005KT 14/02 A301 RMK A01 T01430021  RH  044%=      5-min Rain = 0
KDC1 150326Z 29006KT 15/02 A301 RMK A01 T01450023  RH  044%=      5-min Rain = 0
KDC1 150327Z 29006KT 15/03 A301 RMK A01 T01460026  RH  044%=      5-min Rain = 0
KDC1 150328Z 29005KT 15/03 A301 RMK A01 T01460028  RH  045%=      5-min Rain = 0
KDC1 150329Z 29005KT 15/03 A301 RMK A01 T01450029  RH  045%=      5-min Rain = 0
KDC1 150330Z 29005KT 14/03 A301 RMK A01 T01440030  RH  046%=      5-min Rain = 0
KDC1 150331Z 29005KT 14/03 A301 RMK A01 T01440030  RH  046%=      5-min Rain = 0
KDC1 150332Z 28003KT 14/03 A301 RMK A01 T01430029  RH  046%=      5-min Rain = 0
KDC1 150333Z 28003KT 14/04 A301 RMK A01 T01440038  RH  049%=      5-min Rain = 0
KDC1 150334Z 25002KT 14/04 A301 RMK A01 T01430036  RH  048%=      5-min Rain = 0
KDC1 150335Z 25000KT 14/03 A301 RMK A01 T01430029  RH  046%=      5-min Rain = 0
KDC1 150336Z 24001KT 14/04 A301 RMK A01 T01410036  RH  049%=      5-min Rain = 0
KDC1 150337Z 24000KT 14/03 A301 RMK A01 T01410030  RH  047%=      5-min Rain = 0
KDC1 150338Z 27000KT 14/03 A301 RMK A01 T01390026  RH  046%=      5-min Rain = 0
KDC1 150339Z 00000KT 14/02 A301 RMK A01 T01390024  RH  046%=      5-min Rain = 0
KDC1 150340Z 00000KT 14/02 A301 RMK A01 T01390023  RH  045%=      5-min Rain = 0
KDC1 150341Z 26001KT 14/02 A301 RMK A01 T01400022  RH  045%=      5-min Rain = 0
KDC1 150342Z 28001KT 14/02 A301 RMK A01 T01400022  RH  045%=      5-min Rain = 0
KDC1 150343Z 25001KT 14/03 A301 RMK A01 T01400028  RH  047%=      5-min Rain = 0
KDC1 150344Z 25001KT 14/04 A301 RMK A01 T01410038  RH  050%=      5-min Rain = 0
KDC1 150345Z 23001KT 14/03 A301 RMK A01 T01420033  RH  048%=      5-min Rain = 0
KDC1 150346Z 24002KT 14/04 A301 RMK A01 T01420037  RH  049%=      5-min Rain = 0
KDC1 150347Z 27001KT 14/04 A301 RMK A01 T01430039  RH  049%=      5-min Rain = 0
KDC1 150348Z 27003KT 14/04 A301 RMK A01 T01430037  RH  049%=      5-min Rain = 0
KDC1 150349Z 28005KT 14/03 A301 RMK A01 T01420034  RH  048%=      5-min Rain = 0
KDC1 150350Z 28005KT 14/03 A301 RMK A01 T01420031  RH  047%=      5-min Rain = 0
KDC1 150351Z 26004KT 14/03 A301 RMK A01 T01420027  RH  046%=      5-min Rain = 0
KDC1 150352Z 26003KT 14/03 A301 RMK A01 T01420025  RH  045%=      5-min Rain = 0
KDC1 150353Z 24001KT 14/03 A301 RMK A01 T01420031  RH  047%=      5-min Rain = 0
KDC1 150354Z 21001KT 14/04 A301 RMK A01 T01420037  RH  049%=      5-min Rain = 0
KDC1 150355Z 18000KT 14/04 A301 RMK A01 T01410044  RH  052%=      5-min Rain = 0
KDC1 150356Z 18001KT 14/05 A301 RMK A01 T01400048  RH  054%=      5-min Rain = 0
KDC1 150357Z 19002KT 14/05 A301 RMK A01 T01400046  RH  053%=      5-min Rain = 0
KDC1 150358Z 18002KT 14/04 A301 RMK A01 T01400042  RH  052%=      5-min Rain = 0
KDC1 150359Z 16002KT 14/03 A301 RMK A01 T01410028  RH  047%=      5-min Rain = 0
KDC1 150400Z 16002KT 14/02 A301 RMK A01 T01410024  RH  045%=      5-min Rain = 0
KDC1 150401Z 15003KT 14/03 A301 RMK A01 T01410028  RH  046%=      5-min Rain = 0
KDC1 150402Z 17003KT 14/04 A301 RMK A01 T01400035  RH  049%=      5-min Rain = 0
KDC1 150403Z 16003KT 14/03 A301 RMK A01 T01390030  RH  048%=      5-min Rain = 0
KDC1 150404Z 15003KT 14/02 A301 RMK A01 T01410017  RH  043%=      5-min Rain = 0
KDC1 150405Z 16003KT 15/01 A301 RMK A01 T01460012  RH  040%=      5-min Rain = 0
KDC1 150406Z 16003KT 15/01 A301 RMK A01 T01490012  RH  039%=      5-min Rain = 0
KDC1 150407Z 16004KT 15/02 A301 RMK A01 T01530015  RH  039%=      5-min Rain = 0
KDC1 150408Z 16004KT 15/02 A301 RMK A01 T01540016  RH  039%=      5-min Rain = 0
KDC1 150409Z 16004KT 16/02 A301 RMK A01 T01550015  RH  039%=      5-min Rain = 0
KDC1 150410Z 16004KT 15/02 A301 RMK A01 T01540019  RH  040%=      5-min Rain = 0
KDC1 150411Z 15004KT 15/02 A301 RMK A01 T01530019  RH  040%=      5-min Rain = 0
KDC1 150412Z 15004KT 15/02 A301 RMK A01 T01520024  RH  042%=      5-min Rain = 0
KDC1 150413Z 14005KT 15/02 A3011 RMK A01 T01510018  RH  041%=      5-min Rain = 0
KDC1 150414Z 15005KT 15/02 A3011 RMK A01 T01480015  RH  041%=      5-min Rain = 0
KDC1 150415Z 15004KT 15/02 A3011 RMK A01 T01450018  RH  042%=      5-min Rain = 0
KDC1 150416Z 16004KT 14/02 A3011 RMK A01 T01420019  RH  043%=      5-min Rain = 0
KDC1 150417Z 15004KT 14/02 A3011 RMK A01 T01410021  RH  044%=      5-min Rain = 0
KDC1 150418Z 15003KT 14/02 A3011 RMK A01 T01400024  RH  045%=      5-min Rain = 0
KDC1 150419Z 16004KT 14/02 A3011 RMK A01 T01390020  RH  044%=      5-min Rain = 0
KDC1 150420Z 16005KT 14/02 A3011 RMK A01 T01390020  RH  044%=      5-min Rain = 0
KDC1 150421Z 15005KT 14/02 A3011 RMK A01 T01390024  RH  046%=      5-min Rain = 0
KDC1 150422Z 16004KT 14/03 A3011 RMK A01 T01390025  RH  046%=      5-min Rain = 0
KDC1 150423Z 17003KT 14/03 A3011 RMK A01 T01400029  RH  047%=      5-min Rain = 0
KDC1 150424Z 16004KT 14/03 A3011 RMK A01 T01420032  RH  048%=      5-min Rain = 0
KDC1 150425Z 16004KT 14/04 A3011 RMK A01 T01430035  RH  048%=      5-min Rain = 0
KDC1 150426Z 17004KT 14/03 A3011 RMK A01 T01430034  RH  048%=      5-min Rain = 0
KDC1 150427Z 17004KT 14/03 A3011 RMK A01 T01430033  RH  047%=      5-min Rain = 0
KDC1 150428Z 16003KT 14/03 A3011 RMK A01 T01430030  RH  047%=      5-min Rain = 0
KDC1 150429Z 17003KT 15/03 A3011 RMK A01 T01450031  RH  046%=      5-min Rain = 0
KDC1 150430Z 18003KT 15/03 A3011 RMK A01 T01460034  RH  047%=      5-min Rain = 0
KDC1 150431Z 19002KT 15/03 A3011 RMK A01 T01460033  RH  046%=      5-min Rain = 0
KDC1 150432Z 18002KT 15/04 A3011 RMK A01 T01470035  RH  047%=      5-min Rain = 0
KDC1 150433Z 18003KT 15/04 A3011 RMK A01 T01460036  RH  047%=      5-min Rain = 0
KDC1 150434Z 18003KT 15/04 A3011 RMK A01 T01460038  RH  049%=      5-min Rain = 0
KDC1 150435Z 19003KT 15/03 A3011 RMK A01 T01450031  RH  046%=      5-min Rain = 0
KDC1 150436Z 19003KT 15/03 A3011 RMK A01 T01460027  RH  045%=      5-min Rain = 0
KDC1 150437Z 19003KT 15/03 A3011 RMK A01 T01480027  RH  044%=      5-min Rain = 0
KDC1 150438Z 19003KT 15/03 A3011 RMK A01 T01480028  RH  044%=      5-min Rain = 0
KDC1 150439Z 19002KT 15/03 A3011 RMK A01 T01480026  RH  044%=      5-min Rain = 0
KDC1 150440Z 19002KT 15/03 A3011 RMK A01 T01480025  RH  043%=      5-min Rain = 0
KDC1 150441Z 19003KT 15/02 A3011 RMK A01 T01490022  RH  042%=      5-min Rain = 0
KDC1 150442Z 18002KT 15/02 A3011 RMK A01 T01500020  RH  041%=      5-min Rain = 0
KDC1 150443Z 17002KT 15/02 A3011 RMK A01 T01530019  RH  040%=      5-min Rain = 0
KDC1 150444Z 20001KT 16/02 A3011 RMK A01 T01550020  RH  040%=      5-min Rain = 0
KDC1 150445Z 20002KT 16/02 A3011 RMK A01 T01550020  RH  040%=      5-min Rain = 0
KDC1 150446Z 19002KT 15/02 A3011 RMK A01 T01540020  RH  040%=      5-min Rain = 0
KDC1 150447Z 20002KT 15/02 A3011 RMK A01 T01540019  RH  040%=      5-min Rain = 0
KDC1 150448Z 24001KT 15/02 A3011 RMK A01 T01530019  RH  040%=      5-min Rain = 0
KDC1 150449Z 32000KT 15/02 A3011 RMK A01 T01490020  RH  042%=      5-min Rain = 0
KDC1 150450Z 30000KT 15/02 A3011 RMK A01 T01470021  RH  043%=      5-min Rain = 0
KDC1 150451Z 30000KT 15/02 A3011 RMK A01 T01450021  RH  043%=      5-min Rain = 0
KDC1 150452Z 18000KT 14/02 A3011 RMK A01 T01440022  RH  044%=      5-min Rain = 0
KDC1 150453Z 15001KT 14/02 A3011 RMK A01 T01440020  RH  043%=      5-min Rain = 0
KDC1 150454Z 16001KT 14/02 A3011 RMK A01 T01430020  RH  043%=      5-min Rain = 0
KDC1 150455Z 16002KT 14/02 A3011 RMK A01 T01420020  RH  044%=      5-min Rain = 0
KDC1 150456Z 16002KT 14/02 A3011 RMK A01 T01430022  RH  044%=      5-min Rain = 0
KDC1 150457Z 13002KT 15/02 A3011 RMK A01 T01450023  RH  044%=      5-min Rain = 0
KDC1 150458Z 13002KT 15/02 A3011 RMK A01 T01450021  RH  043%=      5-min Rain = 0
KDC1 150459Z 16002KT 14/02 A3011 RMK A01 T01440019  RH  043%=      5-min Rain = 0
KDC1 150500Z 17003KT 14/02 A3011 RMK A01 T01420018  RH  043%=      5-min Rain = 0
KDC1 150501Z 17003KT 14/02 A3011 RMK A01 T01410021  RH  044%=      5-min Rain = 0
KDC1 150502Z 15002KT 14/03 A3011 RMK A01 T01410029  RH  047%=      5-min Rain = 0
KDC1 150503Z 15002KT 14/03 A3011 RMK A01 T01440026  RH  045%=      5-min Rain = 0
KDC1 150504Z 14003KT 15/03 A3011 RMK A01 T01470026  RH  044%=      5-min Rain = 0
KDC1 150505Z 16003KT 15/03 A3011 RMK A01 T01480026  RH  044%=      5-min Rain = 0
KDC1 150506Z 17003KT 15/02 A3011 RMK A01 T01460024  RH  044%=      5-min Rain = 0
KDC1 150507Z 16003KT 15/02 A3011 RMK A01 T01450024  RH  044%=      5-min Rain = 0
KDC1 150508Z 15003KT 15/03 A3011 RMK A01 T01450027  RH  045%=      5-min Rain = 0
KDC1 150509Z 12004KT 14/03 A3011 RMK A01 T01410025  RH  045%=      5-min Rain = 0
KDC1 150510Z 11005KT 14/03 A3012 RMK A01 T01370028  RH  048%=      5-min Rain = 0
KDC1 150511Z 11007KT 14/03 A3012 RMK A01 T01360025  RH  047%=      5-min Rain = 0
KDC1 150512Z 11006KT 14/02 A3012 RMK A01 T01360022  RH  046%=      5-min Rain = 0
KDC1 150513Z 11006KT 14/02 A3012 RMK A01 T01370021  RH  045%=      5-min Rain = 0
KDC1 150514Z 13006KT 14/02 A3012 RMK A01 T01370019  RH  045%=      5-min Rain = 0
KDC1 150515Z 13005KT 14/02 A3012 RMK A01 T01350018  RH  045%=      5-min Rain = 0
KDC1 150516Z 14005KT 13/02 A3012 RMK A01 T01330024  RH  048%=      5-min Rain = 0
KDC1 150517Z 16005KT 13/03 A3012 RMK A01 T01300033  RH  052%=      5-min Rain = 0
KDC1 150518Z 16005KT 13/04 A3012 RMK A01 T01270035  RH  053%=      5-min Rain = 0
KDC1 150519Z 16004KT 13/02 A3012 RMK A01 T01270024  RH  049%=      5-min Rain = 0
KDC1 150520Z 17004KT 13/02 A3012 RMK A01 T01270023  RH  049%=      5-min Rain = 0
KDC1 150521Z 17003KT 13/03 A3012 RMK A01 T01270025  RH  050%=      5-min Rain = 0
KDC1 150522Z 17004KT 13/03 A3012 RMK A01 T01280025  RH  049%=      5-min Rain = 0
KDC1 150523Z 18004KT 13/02 A3012 RMK A01 T01290022  RH  048%=      5-min Rain = 0
KDC1 150524Z 17004KT 13/02 A3012 RMK A01 T01320020  RH  047%=      5-min Rain = 0
KDC1 150525Z 17005KT 14/02 A3012 RMK A01 T01350019  RH  045%=      5-min Rain = 0
KDC1 150526Z 17004KT 14/02 A3012 RMK A01 T01370019  RH  045%=      5-min Rain = 0
KDC1 150527Z 16004KT 14/02 A3012 RMK A01 T01390019  RH  044%=      5-min Rain = 0
KDC1 150528Z 16005KT 14/02 A3012 RMK A01 T01400019  RH  044%=      5-min Rain = 0
KDC1 150529Z 16005KT 14/02 A3012 RMK A01 T01410019  RH  044%=      5-min Rain = 0
KDC1 150530Z 17005KT 14/02 A3012 RMK A01 T01400023  RH  045%=      5-min Rain = 0
KDC1 150531Z 16006KT 14/03 A3012 RMK A01 T01410028  RH  047%=      5-min Rain = 0
KDC1 150532Z 17006KT 14/03 A3012 RMK A01 T01400032  RH  048%=      5-min Rain = 0
KDC1 150533Z 17006KT 14/04 A3012 RMK A01 T01400036  RH  050%=      5-min Rain = 0
KDC1 150534Z 16006KT 14/03 A3012 RMK A01 T01400029  RH  047%=      5-min Rain = 0
KDC1 150535Z 18006KT 14/03 A3012 RMK A01 T01410028  RH  047%=      5-min Rain = 0
KDC1 150536Z 17005KT 14/02 A3012 RMK A01 T01420021  RH  044%=      5-min Rain = 0
KDC1 150537Z 18004KT 14/02 A3012 RMK A01 T01430018  RH  043%=      5-min Rain = 0
KDC1 150538Z 18005KT 14/02 A3012 RMK A01 T01440021  RH  043%=      5-min Rain = 0
KDC1 150539Z 18004KT 14/02 A3012 RMK A01 T01440016  RH  042%=      5-min Rain = 0
KDC1 150540Z 18005KT 15/01 A3012 RMK A01 T01460012  RH  040%=      5-min Rain = 0
KDC1 150541Z 18005KT 15/01 A3012 RMK A01 T01480011  RH  039%=      5-min Rain = 0
KDC1 150542Z 19005KT 15/01 A3012 RMK A01 T01480010  RH  039%=      5-min Rain = 0
KDC1 150543Z 19004KT 15/01 A3012 RMK A01 T01480009  RH  039%=      5-min Rain = 0
KDC1 150544Z 20004KT 15/01 A3012 RMK A01 T01480009  RH  039%=      5-min Rain = 0
KDC1 150545Z 18005KT 15/01 A3013 RMK A01 T01460010  RH  040%=      5-min Rain = 0
KDC1 150546Z 17005KT 15/01 A3013 RMK A01 T01450009  RH  040%=      5-min Rain = 0
KDC1 150547Z 18006KT 15/01 A3013 RMK A01 T01450010  RH  040%=      5-min Rain = 0
KDC1 150548Z 18005KT 15/01 A3013 RMK A01 T01450012  RH  040%=      5-min Rain = 0
KDC1 150549Z 19004KT 14/01 A3013 RMK A01 T01440013  RH  041%=      5-min Rain = 0
KDC1 150550Z 19004KT 14/01 A3013 RMK A01 T01430010  RH  040%=      5-min Rain = 0
KDC1 150551Z 19005KT 14/01 A3013 RMK A01 T01440010  RH  040%=      5-min Rain = 0
KDC1 150552Z 20005KT 15/01 A3013 RMK A01 T01450009  RH  040%=      5-min Rain = 0
KDC1 150553Z 20004KT 15/01 A3013 RMK A01 T01450010  RH  040%=      5-min Rain = 0
KDC1 150554Z 20004KT 15/01 A3013 RMK A01 T01450011  RH  040%=      5-min Rain = 0
KDC1 150555Z 25004KT 14/01 A3013 RMK A01 T01440013  RH  041%=      5-min Rain = 0
KDC1 150556Z 24004KT 14/02 A3013 RMK A01 T01360018  RH  045%=      5-min Rain = 0
KDC1 150557Z 22004KT 13/02 A3013 RMK A01 T01330016  RH  045%=      5-min Rain = 0
KDC1 150558Z 25003KT 13/02 A3013 RMK A01 T01330016  RH  045%=      5-min Rain = 0
KDC1 150559Z 26003KT 13/02 A3013 RMK A01 T01320021  RH  047%=      5-min Rain = 0

Page generated in 0.0342 seconds.